<?xml version="1.0" encoding="utf-8"?>
<gpx xmlns:xsi="http://www.w3.org/2001/XMLSchema-instance" xmlns:xsd="http://www.w3.org/2001/XMLSchema" version="1.1" creator="Shapelink.com" xmlns="http://www.topografix.com/GPX/1/1" xmlns:gpxtpx="http://www.garmin.com/xmlschemas/TrackPointExtension/v1">
  <metadata>
    <name>Ejecutar 10.05 km, 2020-02-10</name>
    <desc></desc>
    <author><name>Per Rooth</name></author> 
    <time>2020-02-10T17:33:31Z</time>
  </metadata>
  <trk>
    <name>Ejecutar 10.05 km, 2020-02-10</name>
    <trkseg>
      <trkpt lat="56.891053334059" lon="14.824465463951">
        <ele>173.6</ele>
        <time>2020-02-10T17:33:31Z</time>
      </trkpt>
      <trkpt lat="56.890992230008" lon="14.824549199132">
        <ele>175.2</ele>
        <time>2020-02-10T17:33:34Z</time>
      </trkpt>
      <trkpt lat="56.890970688525" lon="14.824580631257">
        <ele>174</ele>
        <time>2020-02-10T17:33:35Z</time>
      </trkpt>
      <trkpt lat="56.890926851188" lon="14.824640478023">
        <ele>173</ele>
        <time>2020-02-10T17:33:37Z</time>
      </trkpt>
      <trkpt lat="56.890834398831" lon="14.824841308347">
        <ele>171.6</ele>
        <time>2020-02-10T17:33:42Z</time>
      </trkpt>
      <trkpt lat="56.890785951449" lon="14.824973993824">
        <ele>170.6</ele>
        <time>2020-02-10T17:33:45Z</time>
      </trkpt>
      <trkpt lat="56.890731720556" lon="14.825106595482">
        <ele>169.4</ele>
        <time>2020-02-10T17:33:48Z</time>
      </trkpt>
      <trkpt lat="56.890694085825" lon="14.825181864944">
        <ele>169.2</ele>
        <time>2020-02-10T17:33:50Z</time>
      </trkpt>
      <trkpt lat="56.890542038159" lon="14.825410774633">
        <ele>168.8</ele>
        <time>2020-02-10T17:33:57Z</time>
      </trkpt>
      <trkpt lat="56.890490740931" lon="14.825465424621">
        <ele>168</ele>
        <time>2020-02-10T17:33:59Z</time>
      </trkpt>
      <trkpt lat="56.890405999922" lon="14.825775722559">
        <ele>167.8</ele>
        <time>2020-02-10T17:34:06Z</time>
      </trkpt>
      <trkpt lat="56.890360737662" lon="14.826026173731">
        <ele>167.2</ele>
        <time>2020-02-10T17:34:11Z</time>
      </trkpt>
      <trkpt lat="56.890353277771" lon="14.826074453475">
        <ele>167</ele>
        <time>2020-02-10T17:34:12Z</time>
      </trkpt>
      <trkpt lat="56.890310278624" lon="14.826422637601">
        <ele>166.6</ele>
        <time>2020-02-10T17:34:19Z</time>
      </trkpt>
      <trkpt lat="56.890326204234" lon="14.826682225044">
        <ele>166.2</ele>
        <time>2020-02-10T17:34:25Z</time>
      </trkpt>
      <trkpt lat="56.890317738515" lon="14.826761685456">
        <ele>166</ele>
        <time>2020-02-10T17:34:27Z</time>
      </trkpt>
      <trkpt lat="56.8902854682" lon="14.827101320044">
        <ele>166</ele>
        <time>2020-02-10T17:34:35Z</time>
      </trkpt>
      <trkpt lat="56.890261747423" lon="14.827370630491">
        <ele>165.8</ele>
        <time>2020-02-10T17:34:41Z</time>
      </trkpt>
      <trkpt lat="56.890233248963" lon="14.827700039161">
        <ele>166.2</ele>
        <time>2020-02-10T17:34:49Z</time>
      </trkpt>
      <trkpt lat="56.890170719989" lon="14.828038500283">
        <ele>166.2</ele>
        <time>2020-02-10T17:34:57Z</time>
      </trkpt>
      <trkpt lat="56.890077261804" lon="14.828168503552">
        <ele>167</ele>
        <time>2020-02-10T17:35:03Z</time>
      </trkpt>
      <trkpt lat="56.889957065358" lon="14.828428174814">
        <ele>166</ele>
        <time>2020-02-10T17:35:10Z</time>
      </trkpt>
      <trkpt lat="56.889896631859" lon="14.828608218026">
        <ele>166.2</ele>
        <time>2020-02-10T17:35:14Z</time>
      </trkpt>
      <trkpt lat="56.889865115915" lon="14.828694300139">
        <ele>166.2</ele>
        <time>2020-02-10T17:35:16Z</time>
      </trkpt>
      <trkpt lat="56.889847430106" lon="14.829030581967">
        <ele>165.8</ele>
        <time>2020-02-10T17:35:23Z</time>
      </trkpt>
      <trkpt lat="56.889833097057" lon="14.829113646596">
        <ele>165.8</ele>
        <time>2020-02-10T17:35:25Z</time>
      </trkpt>
      <trkpt lat="56.889680127382" lon="14.829381280663">
        <ele>166</ele>
        <time>2020-02-10T17:35:34Z</time>
      </trkpt>
      <trkpt lat="56.889518189074" lon="14.829501141833">
        <ele>166</ele>
        <time>2020-02-10T17:35:41Z</time>
      </trkpt>
      <trkpt lat="56.889340492794" lon="14.829574148182">
        <ele>165</ele>
        <time>2020-02-10T17:35:48Z</time>
      </trkpt>
      <trkpt lat="56.889162880333" lon="14.829648411816">
        <ele>164.4</ele>
        <time>2020-02-10T17:35:55Z</time>
      </trkpt>
      <trkpt lat="56.889076127668" lon="14.829688812574">
        <ele>164.4</ele>
        <time>2020-02-10T17:35:58Z</time>
      </trkpt>
      <trkpt lat="56.888876638448" lon="14.829744636028">
        <ele>164.4</ele>
        <time>2020-02-10T17:36:06Z</time>
      </trkpt>
      <trkpt lat="56.888701121462" lon="14.829914201865">
        <ele>164.8</ele>
        <time>2020-02-10T17:36:13Z</time>
      </trkpt>
      <trkpt lat="56.888645046551" lon="14.830049737188">
        <ele>165</ele>
        <time>2020-02-10T17:36:16Z</time>
      </trkpt>
      <trkpt lat="56.888535830394" lon="14.830374535813">
        <ele>165.4</ele>
        <time>2020-02-10T17:36:24Z</time>
      </trkpt>
      <trkpt lat="56.888463075502" lon="14.830631608686">
        <ele>166</ele>
        <time>2020-02-10T17:36:30Z</time>
      </trkpt>
      <trkpt lat="56.888328881283" lon="14.830873091225">
        <ele>165.6</ele>
        <time>2020-02-10T17:36:36Z</time>
      </trkpt>
      <trkpt lat="56.888200386756" lon="14.831006698711">
        <ele>165</ele>
        <time>2020-02-10T17:36:41Z</time>
      </trkpt>
      <trkpt lat="56.888013889481" lon="14.831104096389">
        <ele>165</ele>
        <time>2020-02-10T17:36:49Z</time>
      </trkpt>
      <trkpt lat="56.887867373869" lon="14.831149693925">
        <ele>165</ele>
        <time>2020-02-10T17:36:54Z</time>
      </trkpt>
      <trkpt lat="56.887691186331" lon="14.831253294209">
        <ele>164.8</ele>
        <time>2020-02-10T17:37:00Z</time>
      </trkpt>
      <trkpt lat="56.887526230539" lon="14.831399223088">
        <ele>164.8</ele>
        <time>2020-02-10T17:37:04Z</time>
      </trkpt>
      <trkpt lat="56.887385666076" lon="14.831630647347">
        <ele>166</ele>
        <time>2020-02-10T17:37:09Z</time>
      </trkpt>
      <trkpt lat="56.887361945299" lon="14.83167398177">
        <ele>166.2</ele>
        <time>2020-02-10T17:37:10Z</time>
      </trkpt>
      <trkpt lat="56.887258680291" lon="14.831958631094">
        <ele>167.6</ele>
        <time>2020-02-10T17:37:16Z</time>
      </trkpt>
      <trkpt lat="56.88722439832" lon="14.832077654074">
        <ele>168.6</ele>
        <time>2020-02-10T17:37:19Z</time>
      </trkpt>
      <trkpt lat="56.887201683371" lon="14.832200029814">
        <ele>169.8</ele>
        <time>2020-02-10T17:37:23Z</time>
      </trkpt>
      <trkpt lat="56.887190786901" lon="14.832265324815">
        <ele>171</ele>
        <time>2020-02-10T17:37:25Z</time>
      </trkpt>
      <trkpt lat="56.887188942883" lon="14.832298936234">
        <ele>171.6</ele>
        <time>2020-02-10T17:37:26Z</time>
      </trkpt>
      <trkpt lat="56.887187015046" lon="14.832329697807">
        <ele>172.4</ele>
        <time>2020-02-10T17:37:27Z</time>
      </trkpt>
      <trkpt lat="56.88718081244" lon="14.83241661811">
        <ele>173.6</ele>
        <time>2020-02-10T17:37:30Z</time>
      </trkpt>
      <trkpt lat="56.887078301803" lon="14.832722306003">
        <ele>174</ele>
        <time>2020-02-10T17:37:37Z</time>
      </trkpt>
      <trkpt lat="56.88693606096" lon="14.832864965941">
        <ele>172.6</ele>
        <time>2020-02-10T17:37:43Z</time>
      </trkpt>
      <trkpt lat="56.886758280861" lon="14.832938139928">
        <ele>172.2</ele>
        <time>2020-02-10T17:37:51Z</time>
      </trkpt>
      <trkpt lat="56.886680077734" lon="14.832949120217">
        <ele>172.4</ele>
        <time>2020-02-10T17:37:55Z</time>
      </trkpt>
      <trkpt lat="56.886526353688" lon="14.832949120217">
        <ele>173.6</ele>
        <time>2020-02-10T17:38:01Z</time>
      </trkpt>
      <trkpt lat="56.886458208841" lon="14.832937804652">
        <ele>172.4</ele>
        <time>2020-02-10T17:38:03Z</time>
      </trkpt>
      <trkpt lat="56.886392159469" lon="14.832921459947">
        <ele>170.8</ele>
        <time>2020-02-10T17:38:05Z</time>
      </trkpt>
      <trkpt lat="56.886297779275" lon="14.832897822989">
        <ele>169.8</ele>
        <time>2020-02-10T17:38:08Z</time>
      </trkpt>
      <trkpt lat="56.886233071007" lon="14.83285918243">
        <ele>168.8</ele>
        <time>2020-02-10T17:38:10Z</time>
      </trkpt>
      <trkpt lat="56.886127039972" lon="14.832762706761">
        <ele>167.6</ele>
        <time>2020-02-10T17:38:14Z</time>
      </trkpt>
      <trkpt lat="56.8859352621" lon="14.832639995745">
        <ele>167.8</ele>
        <time>2020-02-10T17:38:21Z</time>
      </trkpt>
      <trkpt lat="56.885852868023" lon="14.832609988543">
        <ele>168.6</ele>
        <time>2020-02-10T17:38:25Z</time>
      </trkpt>
      <trkpt lat="56.885778688208" lon="14.832601941919">
        <ele>169.8</ele>
        <time>2020-02-10T17:38:28Z</time>
      </trkpt>
      <trkpt lat="56.885629490388" lon="14.832594733485">
        <ele>170.2</ele>
        <time>2020-02-10T17:38:34Z</time>
      </trkpt>
      <trkpt lat="56.885423714743" lon="14.83252977376">
        <ele>170.4</ele>
        <time>2020-02-10T17:38:43Z</time>
      </trkpt>
      <trkpt lat="56.885276109484" lon="14.832449475158">
        <ele>168.8</ele>
        <time>2020-02-10T17:38:48Z</time>
      </trkpt>
      <trkpt lat="56.885212323225" lon="14.832397758835">
        <ele>167.8</ele>
        <time>2020-02-10T17:38:50Z</time>
      </trkpt>
      <trkpt lat="56.885151386812" lon="14.832327853789">
        <ele>166.6</ele>
        <time>2020-02-10T17:38:52Z</time>
      </trkpt>
      <trkpt lat="56.885122972171" lon="14.832298768596">
        <ele>165.6</ele>
        <time>2020-02-10T17:38:53Z</time>
      </trkpt>
      <trkpt lat="56.885062371034" lon="14.832243867151">
        <ele>164.4</ele>
        <time>2020-02-10T17:38:55Z</time>
      </trkpt>
      <trkpt lat="56.884883836564" lon="14.832055861134">
        <ele>164</ele>
        <time>2020-02-10T17:39:01Z</time>
      </trkpt>
      <trkpt lat="56.884709241587" lon="14.831832232042">
        <ele>163.6</ele>
        <time>2020-02-10T17:39:05Z</time>
      </trkpt>
      <trkpt lat="56.884619974352" lon="14.831724105532">
        <ele>163.2</ele>
        <time>2020-02-10T17:39:08Z</time>
      </trkpt>
      <trkpt lat="56.88456817421" lon="14.831639196885">
        <ele>163</ele>
        <time>2020-02-10T17:39:10Z</time>
      </trkpt>
      <trkpt lat="56.884405397712" lon="14.831409700463">
        <ele>163</ele>
        <time>2020-02-10T17:39:16Z</time>
      </trkpt>
      <trkpt lat="56.884226276509" lon="14.831463428442">
        <ele>163.4</ele>
        <time>2020-02-10T17:39:24Z</time>
      </trkpt>
      <trkpt lat="56.884098620172" lon="14.8317469043">
        <ele>163</ele>
        <time>2020-02-10T17:39:31Z</time>
      </trkpt>
      <trkpt lat="56.883968449265" lon="14.832016214747">
        <ele>163.2</ele>
        <time>2020-02-10T17:39:37Z</time>
      </trkpt>
      <trkpt lat="56.883857137633" lon="14.832300444976">
        <ele>163.8</ele>
        <time>2020-02-10T17:39:44Z</time>
      </trkpt>
      <trkpt lat="56.883714561514" lon="14.832543520076">
        <ele>162.8</ele>
        <time>2020-02-10T17:39:51Z</time>
      </trkpt>
      <trkpt lat="56.883573410318" lon="14.832749463359">
        <ele>162.8</ele>
        <time>2020-02-10T17:39:58Z</time>
      </trkpt>
      <trkpt lat="56.883463355971" lon="14.832887513252">
        <ele>162</ele>
        <time>2020-02-10T17:40:03Z</time>
      </trkpt>
      <trkpt lat="56.883360258601" lon="14.833153973853">
        <ele>162.6</ele>
        <time>2020-02-10T17:40:09Z</time>
      </trkpt>
      <trkpt lat="56.883358498402" lon="14.833196889181">
        <ele>162.8</ele>
        <time>2020-02-10T17:40:10Z</time>
      </trkpt>
      <trkpt lat="56.883368221406" lon="14.83328330657">
        <ele>163.2</ele>
        <time>2020-02-10T17:40:12Z</time>
      </trkpt>
      <trkpt lat="56.88345589608" lon="14.833450022561">
        <ele>164.4</ele>
        <time>2020-02-10T17:40:17Z</time>
      </trkpt>
      <trkpt lat="56.883498140856" lon="14.833507773852">
        <ele>165.6</ele>
        <time>2020-02-10T17:40:19Z</time>
      </trkpt>
      <trkpt lat="56.883579780562" lon="14.833606093539">
        <ele>166.6</ele>
        <time>2020-02-10T17:40:23Z</time>
      </trkpt>
      <trkpt lat="56.883688829081" lon="14.833724445967">
        <ele>167.6</ele>
        <time>2020-02-10T17:40:28Z</time>
      </trkpt>
      <trkpt lat="56.883859987479" lon="14.833865094249">
        <ele>167</ele>
        <time>2020-02-10T17:40:35Z</time>
      </trkpt>
      <trkpt lat="56.883961157012" lon="14.833926533576">
        <ele>166.4</ele>
        <time>2020-02-10T17:40:39Z</time>
      </trkpt>
      <trkpt lat="56.883985045427" lon="14.833945141394">
        <ele>166.2</ele>
        <time>2020-02-10T17:40:40Z</time>
      </trkpt>
      <trkpt lat="56.884166765019" lon="14.834075647577">
        <ele>166.2</ele>
        <time>2020-02-10T17:40:47Z</time>
      </trkpt>
      <trkpt lat="56.884327446042" lon="14.834184444639">
        <ele>165.4</ele>
        <time>2020-02-10T17:40:53Z</time>
      </trkpt>
      <trkpt lat="56.884464909202" lon="14.83440815755">
        <ele>166.2</ele>
        <time>2020-02-10T17:40:59Z</time>
      </trkpt>
      <trkpt lat="56.884584267458" lon="14.834640168542">
        <ele>166.6</ele>
        <time>2020-02-10T17:41:04Z</time>
      </trkpt>
      <trkpt lat="56.884665488069" lon="14.834885422936">
        <ele>167.8</ele>
        <time>2020-02-10T17:41:10Z</time>
      </trkpt>
      <trkpt lat="56.884765484136" lon="14.835189182992">
        <ele>168.4</ele>
        <time>2020-02-10T17:41:17Z</time>
      </trkpt>
      <trkpt lat="56.884861373072" lon="14.835424714382">
        <ele>169</ele>
        <time>2020-02-10T17:41:23Z</time>
      </trkpt>
      <trkpt lat="56.884901941468" lon="14.835474586687">
        <ele>170.4</ele>
        <time>2020-02-10T17:41:25Z</time>
      </trkpt>
      <trkpt lat="56.884949718298" lon="14.835542060982">
        <ele>171.4</ele>
        <time>2020-02-10T17:41:28Z</time>
      </trkpt>
      <trkpt lat="56.885057006618" lon="14.835604757594">
        <ele>172.4</ele>
        <time>2020-02-10T17:41:32Z</time>
      </trkpt>
      <trkpt lat="56.885146944405" lon="14.835604170861">
        <ele>173.6</ele>
        <time>2020-02-10T17:41:35Z</time>
      </trkpt>
      <trkpt lat="56.885331597662" lon="14.835574163659">
        <ele>173.2</ele>
        <time>2020-02-10T17:41:43Z</time>
      </trkpt>
      <trkpt lat="56.885462439121" lon="14.835547928312">
        <ele>172.2</ele>
        <time>2020-02-10T17:41:48Z</time>
      </trkpt>
      <trkpt lat="56.885656228649" lon="14.835440388535">
        <ele>172.2</ele>
        <time>2020-02-10T17:41:56Z</time>
      </trkpt>
      <trkpt lat="56.88584976672" lon="14.835341565934">
        <ele>171.4</ele>
        <time>2020-02-10T17:42:03Z</time>
      </trkpt>
      <trkpt lat="56.885917576291" lon="14.835318767166">
        <ele>171.2</ele>
        <time>2020-02-10T17:42:06Z</time>
      </trkpt>
      <trkpt lat="56.885977674514" lon="14.835310636723">
        <ele>172.4</ele>
        <time>2020-02-10T17:42:09Z</time>
      </trkpt>
      <trkpt lat="56.886058392211" lon="14.83530502085">
        <ele>173.6</ele>
        <time>2020-02-10T17:42:12Z</time>
      </trkpt>
      <trkpt lat="56.886254947766" lon="14.835328071075">
        <ele>174.2</ele>
        <time>2020-02-10T17:42:19Z</time>
      </trkpt>
      <trkpt lat="56.886419316825" lon="14.835458493439">
        <ele>174.4</ele>
        <time>2020-02-10T17:42:26Z</time>
      </trkpt>
      <trkpt lat="56.886442031774" lon="14.835491769582">
        <ele>174.6</ele>
        <time>2020-02-10T17:42:27Z</time>
      </trkpt>
      <trkpt lat="56.886547308438" lon="14.835788069747">
        <ele>175.2</ele>
        <time>2020-02-10T17:42:34Z</time>
      </trkpt>
      <trkpt lat="56.886575471622" lon="14.835965766027">
        <ele>175.6</ele>
        <time>2020-02-10T17:42:38Z</time>
      </trkpt>
      <trkpt lat="56.886576393631" lon="14.836212193887">
        <ele>176.8</ele>
        <time>2020-02-10T17:42:43Z</time>
      </trkpt>
      <trkpt lat="56.886638419691" lon="14.836586194265">
        <ele>175.8</ele>
        <time>2020-02-10T17:42:49Z</time>
      </trkpt>
      <trkpt lat="56.886651160179" lon="14.836651656904">
        <ele>175.4</ele>
        <time>2020-02-10T17:42:50Z</time>
      </trkpt>
      <trkpt lat="56.8866728693" lon="14.83677855887">
        <ele>174.2</ele>
        <time>2020-02-10T17:42:52Z</time>
      </trkpt>
      <trkpt lat="56.886758448499" lon="14.837092628663">
        <ele>173.4</ele>
        <time>2020-02-10T17:42:58Z</time>
      </trkpt>
      <trkpt lat="56.88680530332" lon="14.837340313808">
        <ele>174</ele>
        <time>2020-02-10T17:43:03Z</time>
      </trkpt>
      <trkpt lat="56.886895073469" lon="14.837645079692">
        <ele>175.2</ele>
        <time>2020-02-10T17:43:10Z</time>
      </trkpt>
      <trkpt lat="56.886947460344" lon="14.837757900066">
        <ele>176.2</ele>
        <time>2020-02-10T17:43:13Z</time>
      </trkpt>
      <trkpt lat="56.88703664376" lon="14.837898045434">
        <ele>177.4</ele>
        <time>2020-02-10T17:43:17Z</time>
      </trkpt>
      <trkpt lat="56.887179387517" lon="14.838139276516">
        <ele>178.2</ele>
        <time>2020-02-10T17:43:23Z</time>
      </trkpt>
      <trkpt lat="56.887312575908" lon="14.838388638041">
        <ele>177.6</ele>
        <time>2020-02-10T17:43:29Z</time>
      </trkpt>
      <trkpt lat="56.887424558092" lon="14.838683345645">
        <ele>177.2</ele>
        <time>2020-02-10T17:43:36Z</time>
      </trkpt>
      <trkpt lat="56.88756470346" lon="14.83896120563">
        <ele>177</ele>
        <time>2020-02-10T17:43:43Z</time>
      </trkpt>
      <trkpt lat="56.887701831344" lon="14.839209980422">
        <ele>177.6</ele>
        <time>2020-02-10T17:43:49Z</time>
      </trkpt>
      <trkpt lat="56.887809790216" lon="14.839497982506">
        <ele>177.8</ele>
        <time>2020-02-10T17:43:55Z</time>
      </trkpt>
      <trkpt lat="56.887909534826" lon="14.839803838037">
        <ele>177.4</ele>
        <time>2020-02-10T17:44:01Z</time>
      </trkpt>
      <trkpt lat="56.887956557285" lon="14.840154285276">
        <ele>177.6</ele>
        <time>2020-02-10T17:44:08Z</time>
      </trkpt>
      <trkpt lat="56.887990923075" lon="14.840352936306">
        <ele>178.4</ele>
        <time>2020-02-10T17:44:12Z</time>
      </trkpt>
      <trkpt lat="56.888034676593" lon="14.840594754121">
        <ele>179.4</ele>
        <time>2020-02-10T17:44:16Z</time>
      </trkpt>
      <trkpt lat="56.888164176948" lon="14.840861214722">
        <ele>180.2</ele>
        <time>2020-02-10T17:44:22Z</time>
      </trkpt>
      <trkpt lat="56.88829644333" lon="14.841025583781">
        <ele>180.6</ele>
        <time>2020-02-10T17:44:28Z</time>
      </trkpt>
      <trkpt lat="56.888485706632" lon="14.841038324269">
        <ele>181</ele>
        <time>2020-02-10T17:44:36Z</time>
      </trkpt>
      <trkpt lat="56.888679663798" lon="14.840923240782">
        <ele>180.6</ele>
        <time>2020-02-10T17:44:43Z</time>
      </trkpt>
      <trkpt lat="56.88877924077" lon="14.840871356821">
        <ele>179.4</ele>
        <time>2020-02-10T17:44:46Z</time>
      </trkpt>
      <trkpt lat="56.888911171876" lon="14.840820813964">
        <ele>178</ele>
        <time>2020-02-10T17:44:50Z</time>
      </trkpt>
      <trkpt lat="56.888972695022" lon="14.840808408752">
        <ele>176.4</ele>
        <time>2020-02-10T17:44:52Z</time>
      </trkpt>
      <trkpt lat="56.889026925915" lon="14.840794243341">
        <ele>175.4</ele>
        <time>2020-02-10T17:44:54Z</time>
      </trkpt>
      <trkpt lat="56.889203532548" lon="14.840719812069">
        <ele>175.8</ele>
        <time>2020-02-10T17:45:01Z</time>
      </trkpt>
      <trkpt lat="56.889372176376" lon="14.840598274519">
        <ele>175.8</ele>
        <time>2020-02-10T17:45:07Z</time>
      </trkpt>
      <trkpt lat="56.889534617598" lon="14.84044228736">
        <ele>176.2</ele>
        <time>2020-02-10T17:45:13Z</time>
      </trkpt>
      <trkpt lat="56.889629500706" lon="14.840375399798">
        <ele>176.4</ele>
        <time>2020-02-10T17:45:16Z</time>
      </trkpt>
      <trkpt lat="56.889817339085" lon="14.840230979661">
        <ele>176.8</ele>
        <time>2020-02-10T17:45:23Z</time>
      </trkpt>
      <trkpt lat="56.889947007078" lon="14.840146238652">
        <ele>177.8</ele>
        <time>2020-02-10T17:45:28Z</time>
      </trkpt>
      <trkpt lat="56.890113890707" lon="14.840008859311">
        <ele>178.8</ele>
        <time>2020-02-10T17:45:33Z</time>
      </trkpt>
      <trkpt lat="56.890301477629" lon="14.839914479117">
        <ele>179.4</ele>
        <time>2020-02-10T17:45:38Z</time>
      </trkpt>
      <trkpt lat="56.89047154638" lon="14.839821272389">
        <ele>178.4</ele>
        <time>2020-02-10T17:45:44Z</time>
      </trkpt>
      <trkpt lat="56.890669107763" lon="14.839744578004">
        <ele>179.4</ele>
        <time>2020-02-10T17:45:51Z</time>
      </trkpt>
      <trkpt lat="56.890853425744" lon="14.839613988002">
        <ele>179.6</ele>
        <time>2020-02-10T17:45:58Z</time>
      </trkpt>
      <trkpt lat="56.890915284166" lon="14.83955464415">
        <ele>180</ele>
        <time>2020-02-10T17:46:00Z</time>
      </trkpt>
      <trkpt lat="56.891109911884" lon="14.839403602312">
        <ele>180</ele>
        <time>2020-02-10T17:46:06Z</time>
      </trkpt>
      <trkpt lat="56.891282495205" lon="14.839223475281">
        <ele>178.8</ele>
        <time>2020-02-10T17:46:12Z</time>
      </trkpt>
      <trkpt lat="56.891340414134" lon="14.839158096461">
        <ele>177.6</ele>
        <time>2020-02-10T17:46:14Z</time>
      </trkpt>
      <trkpt lat="56.891424065496" lon="14.839050472865">
        <ele>176.4</ele>
        <time>2020-02-10T17:46:17Z</time>
      </trkpt>
      <trkpt lat="56.891593296057" lon="14.838917368293">
        <ele>175.6</ele>
        <time>2020-02-10T17:46:23Z</time>
      </trkpt>
      <trkpt lat="56.891696225789" lon="14.838902867606">
        <ele>175.4</ele>
        <time>2020-02-10T17:46:26Z</time>
      </trkpt>
      <trkpt lat="56.891882555426" lon="14.83888409215">
        <ele>175.2</ele>
        <time>2020-02-10T17:46:31Z</time>
      </trkpt>
      <trkpt lat="56.892059245878" lon="14.838807984498">
        <ele>175.2</ele>
        <time>2020-02-10T17:46:36Z</time>
      </trkpt>
      <trkpt lat="56.892237193615" lon="14.838700612359">
        <ele>176.6</ele>
        <time>2020-02-10T17:46:43Z</time>
      </trkpt>
      <trkpt lat="56.892412878239" lon="14.838509924134">
        <ele>175.8</ele>
        <time>2020-02-10T17:46:49Z</time>
      </trkpt>
      <trkpt lat="56.89244045469" lon="14.838482431502">
        <ele>175.4</ele>
        <time>2020-02-10T17:46:50Z</time>
      </trkpt>
      <trkpt lat="56.892534415789" lon="14.838403138728">
        <ele>174.2</ele>
        <time>2020-02-10T17:46:53Z</time>
      </trkpt>
      <trkpt lat="56.892673890605" lon="14.838163667845">
        <ele>174.4</ele>
        <time>2020-02-10T17:46:59Z</time>
      </trkpt>
      <trkpt lat="56.892800960209" lon="14.837927382084">
        <ele>175</ele>
        <time>2020-02-10T17:47:05Z</time>
      </trkpt>
      <trkpt lat="56.892846557745" lon="14.837864182558">
        <ele>175.4</ele>
        <time>2020-02-10T17:47:07Z</time>
      </trkpt>
      <trkpt lat="56.893001539076" lon="14.837600320346">
        <ele>175</ele>
        <time>2020-02-10T17:47:14Z</time>
      </trkpt>
      <trkpt lat="56.893148557602" lon="14.837402088411">
        <ele>174.6</ele>
        <time>2020-02-10T17:47:20Z</time>
      </trkpt>
      <trkpt lat="56.893292474825" lon="14.83720184482">
        <ele>175.6</ele>
        <time>2020-02-10T17:47:26Z</time>
      </trkpt>
      <trkpt lat="56.893438655161" lon="14.836951058372">
        <ele>174.8</ele>
        <time>2020-02-10T17:47:32Z</time>
      </trkpt>
      <trkpt lat="56.893591541017" lon="14.836712844774">
        <ele>174.8</ele>
        <time>2020-02-10T17:47:38Z</time>
      </trkpt>
      <trkpt lat="56.893742918131" lon="14.8365245873">
        <ele>174.8</ele>
        <time>2020-02-10T17:47:44Z</time>
      </trkpt>
      <trkpt lat="56.893871496477" lon="14.836361894621">
        <ele>174.4</ele>
        <time>2020-02-10T17:47:49Z</time>
      </trkpt>
      <trkpt lat="56.894036703726" lon="14.836163075953">
        <ele>173.8</ele>
        <time>2020-02-10T17:47:55Z</time>
      </trkpt>
      <trkpt lat="56.894226302304" lon="14.836037682729">
        <ele>174</ele>
        <time>2020-02-10T17:48:02Z</time>
      </trkpt>
      <trkpt lat="56.894429731017" lon="14.835944978915">
        <ele>174</ele>
        <time>2020-02-10T17:48:09Z</time>
      </trkpt>
      <trkpt lat="56.894629555513" lon="14.835870547643">
        <ele>175.4</ele>
        <time>2020-02-10T17:48:15Z</time>
      </trkpt>
      <trkpt lat="56.894818148263" lon="14.83573836508">
        <ele>174.8</ele>
        <time>2020-02-10T17:48:21Z</time>
      </trkpt>
      <trkpt lat="56.894910852077" lon="14.835660832505">
        <ele>174.8</ele>
        <time>2020-02-10T17:48:24Z</time>
      </trkpt>
      <trkpt lat="56.895095170058" lon="14.835502498414">
        <ele>174.8</ele>
        <time>2020-02-10T17:48:30Z</time>
      </trkpt>
      <trkpt lat="56.89522911282" lon="14.835432509549">
        <ele>174.4</ele>
        <time>2020-02-10T17:48:35Z</time>
      </trkpt>
      <trkpt lat="56.895415610095" lon="14.83536537053">
        <ele>175.2</ele>
        <time>2020-02-10T17:48:42Z</time>
      </trkpt>
      <trkpt lat="56.89559540185" lon="14.835342152667">
        <ele>175.4</ele>
        <time>2020-02-10T17:48:47Z</time>
      </trkpt>
      <trkpt lat="56.895739989625" lon="14.835310133809">
        <ele>176.6</ele>
        <time>2020-02-10T17:48:52Z</time>
      </trkpt>
      <trkpt lat="56.895948950392" lon="14.835194295951">
        <ele>177</ele>
        <time>2020-02-10T17:48:59Z</time>
      </trkpt>
      <trkpt lat="56.89612262336" lon="14.835107040372">
        <ele>175.8</ele>
        <time>2020-02-10T17:49:04Z</time>
      </trkpt>
      <trkpt lat="56.89619051675" lon="14.835060017913">
        <ele>175.2</ele>
        <time>2020-02-10T17:49:06Z</time>
      </trkpt>
      <trkpt lat="56.896390592703" lon="14.835041661552">
        <ele>174.2</ele>
        <time>2020-02-10T17:49:12Z</time>
      </trkpt>
      <trkpt lat="56.896597625633" lon="14.835026490313">
        <ele>174.6</ele>
        <time>2020-02-10T17:49:18Z</time>
      </trkpt>
      <trkpt lat="56.896783871451" lon="14.835018276051">
        <ele>175.4</ele>
        <time>2020-02-10T17:49:23Z</time>
      </trkpt>
      <trkpt lat="56.896982354843" lon="14.835026909408">
        <ele>175.6</ele>
        <time>2020-02-10T17:49:29Z</time>
      </trkpt>
      <trkpt lat="56.89712258403" lon="14.835155152478">
        <ele>176.4</ele>
        <time>2020-02-10T17:49:34Z</time>
      </trkpt>
      <trkpt lat="56.897301453776" lon="14.835327149066">
        <ele>177.4</ele>
        <time>2020-02-10T17:49:40Z</time>
      </trkpt>
      <trkpt lat="56.89746791831" lon="14.835483890596">
        <ele>178</ele>
        <time>2020-02-10T17:49:47Z</time>
      </trkpt>
      <trkpt lat="56.897664390046" lon="14.835478945275">
        <ele>177.6</ele>
        <time>2020-02-10T17:49:55Z</time>
      </trkpt>
      <trkpt lat="56.897874105184" lon="14.835383307796">
        <ele>177</ele>
        <time>2020-02-10T17:50:01Z</time>
      </trkpt>
      <trkpt lat="56.897977789287" lon="14.835307200144">
        <ele>176.2</ele>
        <time>2020-02-10T17:50:04Z</time>
      </trkpt>
      <trkpt lat="56.898176021222" lon="14.835170156079">
        <ele>175.6</ele>
        <time>2020-02-10T17:50:10Z</time>
      </trkpt>
      <trkpt lat="56.898278950954" lon="14.835049037624">
        <ele>174.8</ele>
        <time>2020-02-10T17:50:13Z</time>
      </trkpt>
      <trkpt lat="56.898345335602" lon="14.834984245537">
        <ele>173.8</ele>
        <time>2020-02-10T17:50:15Z</time>
      </trkpt>
      <trkpt lat="56.898399650314" lon="14.834924147314">
        <ele>172.8</ele>
        <time>2020-02-10T17:50:17Z</time>
      </trkpt>
      <trkpt lat="56.898568713237" lon="14.83480797418">
        <ele>172.6</ele>
        <time>2020-02-10T17:50:23Z</time>
      </trkpt>
      <trkpt lat="56.898759485281" lon="14.834759275341">
        <ele>172</ele>
        <time>2020-02-10T17:50:29Z</time>
      </trkpt>
      <trkpt lat="56.898818493857" lon="14.834773440752">
        <ele>171.6</ele>
        <time>2020-02-10T17:50:31Z</time>
      </trkpt>
      <trkpt lat="56.898975905939" lon="14.835014839472">
        <ele>170.8</ele>
        <time>2020-02-10T17:50:37Z</time>
      </trkpt>
      <trkpt lat="56.898996860689" lon="14.835072506944">
        <ele>170.6</ele>
        <time>2020-02-10T17:50:38Z</time>
      </trkpt>
      <trkpt lat="56.89913507822" lon="14.83534693035">
        <ele>170.2</ele>
        <time>2020-02-10T17:50:43Z</time>
      </trkpt>
      <trkpt lat="56.899307577722" lon="14.835518675481">
        <ele>169.8</ele>
        <time>2020-02-10T17:50:48Z</time>
      </trkpt>
      <trkpt lat="56.899461804682" lon="14.835500738215">
        <ele>169.6</ele>
        <time>2020-02-10T17:50:53Z</time>
      </trkpt>
      <trkpt lat="56.899632292528" lon="14.835319353899">
        <ele>169.4</ele>
        <time>2020-02-10T17:50:59Z</time>
      </trkpt>
      <trkpt lat="56.899789453153" lon="14.835083487233">
        <ele>168.8</ele>
        <time>2020-02-10T17:51:05Z</time>
      </trkpt>
      <trkpt lat="56.899817616337" lon="14.835031519453">
        <ele>168.4</ele>
        <time>2020-02-10T17:51:06Z</time>
      </trkpt>
      <trkpt lat="56.899984332328" lon="14.834807471266">
        <ele>167.8</ele>
        <time>2020-02-10T17:51:12Z</time>
      </trkpt>
      <trkpt lat="56.900172086888" lon="14.834648634261">
        <ele>168.2</ele>
        <time>2020-02-10T17:51:19Z</time>
      </trkpt>
      <trkpt lat="56.900288930574" lon="14.834579399767">
        <ele>169.6</ele>
        <time>2020-02-10T17:51:23Z</time>
      </trkpt>
      <trkpt lat="56.900482468645" lon="14.834437075105">
        <ele>169.2</ele>
        <time>2020-02-10T17:51:30Z</time>
      </trkpt>
      <trkpt lat="56.900567880206" lon="14.834376557787">
        <ele>168.4</ele>
        <time>2020-02-10T17:51:33Z</time>
      </trkpt>
      <trkpt lat="56.900724118822" lon="14.834138930922">
        <ele>167.8</ele>
        <time>2020-02-10T17:51:40Z</time>
      </trkpt>
      <trkpt lat="56.900749348341" lon="14.834032313154">
        <ele>167.2</ele>
        <time>2020-02-10T17:51:42Z</time>
      </trkpt>
      <trkpt lat="56.900781953932" lon="14.83366971216">
        <ele>168.2</ele>
        <time>2020-02-10T17:51:49Z</time>
      </trkpt>
      <trkpt lat="56.900731411075" lon="14.833381039524">
        <ele>168.4</ele>
        <time>2020-02-10T17:51:54Z</time>
      </trkpt>
      <trkpt lat="56.900694530715" lon="14.833282971294">
        <ele>168.2</ele>
        <time>2020-02-10T17:51:56Z</time>
      </trkpt>
      <trkpt lat="56.900574334269" lon="14.833010643363">
        <ele>167.6</ele>
        <time>2020-02-10T17:52:02Z</time>
      </trkpt>
      <trkpt lat="56.900484145025" lon="14.83286253519">
        <ele>167.4</ele>
        <time>2020-02-10T17:52:06Z</time>
      </trkpt>
      <trkpt lat="56.900310388238" lon="14.832713588827">
        <ele>168.2</ele>
        <time>2020-02-10T17:52:13Z</time>
      </trkpt>
      <trkpt lat="56.900247943083" lon="14.832677127562">
        <ele>168.4</ele>
        <time>2020-02-10T17:52:15Z</time>
      </trkpt>
      <trkpt lat="56.900066726405" lon="14.83254905213">
        <ele>168.6</ele>
        <time>2020-02-10T17:52:21Z</time>
      </trkpt>
      <trkpt lat="56.899875619085" lon="14.83242332363">
        <ele>169</ele>
        <time>2020-02-10T17:52:28Z</time>
      </trkpt>
      <trkpt lat="56.899715860071" lon="14.832263145521">
        <ele>169.2</ele>
        <time>2020-02-10T17:52:34Z</time>
      </trkpt>
      <trkpt lat="56.899663557015" lon="14.832199945995">
        <ele>169.6</ele>
        <time>2020-02-10T17:52:36Z</time>
      </trkpt>
      <trkpt lat="56.899519975068" lon="14.832001797879">
        <ele>170.4</ele>
        <time>2020-02-10T17:52:42Z</time>
      </trkpt>
      <trkpt lat="56.899506480209" lon="14.831900376889">
        <ele>170.6</ele>
        <time>2020-02-10T17:52:44Z</time>
      </trkpt>
      <trkpt lat="56.899485693097" lon="14.831716142727">
        <ele>171.6</ele>
        <time>2020-02-10T17:52:48Z</time>
      </trkpt>
      <trkpt lat="56.899461553225" lon="14.83158010449">
        <ele>172.8</ele>
        <time>2020-02-10T17:52:52Z</time>
      </trkpt>
      <trkpt lat="56.899445543796" lon="14.831466026831">
        <ele>174.2</ele>
        <time>2020-02-10T17:52:55Z</time>
      </trkpt>
      <trkpt lat="56.899406232685" lon="14.831258826263">
        <ele>175.2</ele>
        <time>2020-02-10T17:52:59Z</time>
      </trkpt>
      <trkpt lat="56.899332555784" lon="14.830970572722">
        <ele>174.2</ele>
        <time>2020-02-10T17:53:05Z</time>
      </trkpt>
      <trkpt lat="56.899298357632" lon="14.830696987506">
        <ele>173</ele>
        <time>2020-02-10T17:53:10Z</time>
      </trkpt>
      <trkpt lat="56.899266590231" lon="14.830602942588">
        <ele>172</ele>
        <time>2020-02-10T17:53:12Z</time>
      </trkpt>
      <trkpt lat="56.899231972984" lon="14.83047788464">
        <ele>170.6</ele>
        <time>2020-02-10T17:53:14Z</time>
      </trkpt>
      <trkpt lat="56.899179921385" lon="14.830322484214">
        <ele>169.6</ele>
        <time>2020-02-10T17:53:17Z</time>
      </trkpt>
      <trkpt lat="56.899108088502" lon="14.830154594757">
        <ele>168.4</ele>
        <time>2020-02-10T17:53:21Z</time>
      </trkpt>
      <trkpt lat="56.898994010843" lon="14.82999341082">
        <ele>169.6</ele>
        <time>2020-02-10T17:53:27Z</time>
      </trkpt>
      <trkpt lat="56.898819499685" lon="14.82983080196">
        <ele>169.8</ele>
        <time>2020-02-10T17:53:33Z</time>
      </trkpt>
      <trkpt lat="56.898701314895" lon="14.829816385092">
        <ele>168.6</ele>
        <time>2020-02-10T17:53:37Z</time>
      </trkpt>
      <trkpt lat="56.898525462633" lon="14.829953512976">
        <ele>167.8</ele>
        <time>2020-02-10T17:53:43Z</time>
      </trkpt>
      <trkpt lat="56.898377941193" lon="14.830192816221">
        <ele>168.4</ele>
        <time>2020-02-10T17:53:49Z</time>
      </trkpt>
      <trkpt lat="56.898198987628" lon="14.83037730184">
        <ele>169.6</ele>
        <time>2020-02-10T17:53:57Z</time>
      </trkpt>
      <trkpt lat="56.898184067846" lon="14.830394317097">
        <ele>169.8</ele>
        <time>2020-02-10T17:53:58Z</time>
      </trkpt>
      <trkpt lat="56.898057249699" lon="14.830482327047">
        <ele>170.6</ele>
        <time>2020-02-10T17:54:03Z</time>
      </trkpt>
      <trkpt lat="56.898016597484" lon="14.830533959551">
        <ele>171</ele>
        <time>2020-02-10T17:54:05Z</time>
      </trkpt>
      <trkpt lat="56.897837141005" lon="14.830674691652">
        <ele>172.4</ele>
        <time>2020-02-10T17:54:12Z</time>
      </trkpt>
      <trkpt lat="56.897659193268" lon="14.830799833419">
        <ele>172</ele>
        <time>2020-02-10T17:54:18Z</time>
      </trkpt>
      <trkpt lat="56.897485352662" lon="14.830962526098">
        <ele>172.4</ele>
        <time>2020-02-10T17:54:23Z</time>
      </trkpt>
      <trkpt lat="56.897302040509" lon="14.831165116621">
        <ele>172.8</ele>
        <time>2020-02-10T17:54:30Z</time>
      </trkpt>
      <trkpt lat="56.897127696989" lon="14.83125991591">
        <ele>173.2</ele>
        <time>2020-02-10T17:54:36Z</time>
      </trkpt>
      <trkpt lat="56.896948324329" lon="14.831419088191">
        <ele>173</ele>
        <time>2020-02-10T17:54:42Z</time>
      </trkpt>
      <trkpt lat="56.896787224211" lon="14.831612039529">
        <ele>172.2</ele>
        <time>2020-02-10T17:54:48Z</time>
      </trkpt>
      <trkpt lat="56.896618245107" lon="14.831812199301">
        <ele>172.8</ele>
        <time>2020-02-10T17:54:55Z</time>
      </trkpt>
      <trkpt lat="56.896435519687" lon="14.831975311075">
        <ele>172.8</ele>
        <time>2020-02-10T17:55:01Z</time>
      </trkpt>
      <trkpt lat="56.896265031841" lon="14.832114534434">
        <ele>172.4</ele>
        <time>2020-02-10T17:55:07Z</time>
      </trkpt>
      <trkpt lat="56.896088928122" lon="14.832181338177">
        <ele>172.2</ele>
        <time>2020-02-10T17:55:13Z</time>
      </trkpt>
      <trkpt lat="56.895878877708" lon="14.832241771676">
        <ele>171.8</ele>
        <time>2020-02-10T17:55:21Z</time>
      </trkpt>
      <trkpt lat="56.895712916088" lon="14.832365404701">
        <ele>172.2</ele>
        <time>2020-02-10T17:55:26Z</time>
      </trkpt>
      <trkpt lat="56.895525915899" lon="14.832533461796">
        <ele>172.4</ele>
        <time>2020-02-10T17:55:32Z</time>
      </trkpt>
      <trkpt lat="56.895347046153" lon="14.832621052651">
        <ele>172.8</ele>
        <time>2020-02-10T17:55:40Z</time>
      </trkpt>
      <trkpt lat="56.895166919122" lon="14.832583166463">
        <ele>171.6</ele>
        <time>2020-02-10T17:55:45Z</time>
      </trkpt>
      <trkpt lat="56.895139342671" lon="14.832580987169">
        <ele>171.2</ele>
        <time>2020-02-10T17:55:46Z</time>
      </trkpt>
      <trkpt lat="56.894976230897" lon="14.832597248055">
        <ele>170.2</ele>
        <time>2020-02-10T17:55:51Z</time>
      </trkpt>
      <trkpt lat="56.894809431087" lon="14.832729765894">
        <ele>170</ele>
        <time>2020-02-10T17:55:56Z</time>
      </trkpt>
      <trkpt lat="56.894643134191" lon="14.832921795223">
        <ele>170.4</ele>
        <time>2020-02-10T17:56:01Z</time>
      </trkpt>
      <trkpt lat="56.894518076243" lon="14.833132180913">
        <ele>171.2</ele>
        <time>2020-02-10T17:56:06Z</time>
      </trkpt>
      <trkpt lat="56.894388994983" lon="14.833366119742">
        <ele>171.2</ele>
        <time>2020-02-10T17:56:11Z</time>
      </trkpt>
      <trkpt lat="56.894253292022" lon="14.833579271459">
        <ele>171.4</ele>
        <time>2020-02-10T17:56:17Z</time>
      </trkpt>
      <trkpt lat="56.894131586834" lon="14.83374347288">
        <ele>172.4</ele>
        <time>2020-02-10T17:56:22Z</time>
      </trkpt>
      <trkpt lat="56.893933354899" lon="14.833802732913">
        <ele>172.6</ele>
        <time>2020-02-10T17:56:29Z</time>
      </trkpt>
      <trkpt lat="56.893744845968" lon="14.833705670511">
        <ele>172.4</ele>
        <time>2020-02-10T17:56:35Z</time>
      </trkpt>
      <trkpt lat="56.89356782024" lon="14.833619169303">
        <ele>172.6</ele>
        <time>2020-02-10T17:56:41Z</time>
      </trkpt>
      <trkpt lat="56.893378724576" lon="14.833490255681">
        <ele>173.2</ele>
        <time>2020-02-10T17:56:48Z</time>
      </trkpt>
      <trkpt lat="56.893346370442" lon="14.833474330071">
        <ele>173.6</ele>
        <time>2020-02-10T17:56:49Z</time>
      </trkpt>
      <trkpt lat="56.893275375749" lon="14.833409705622">
        <ele>174.8</ele>
        <time>2020-02-10T17:56:52Z</time>
      </trkpt>
      <trkpt lat="56.89310513936" lon="14.833286994606">
        <ele>175.4</ele>
        <time>2020-02-10T17:56:59Z</time>
      </trkpt>
      <trkpt lat="56.892942698138" lon="14.833281043457">
        <ele>176</ele>
        <time>2020-02-10T17:57:05Z</time>
      </trkpt>
      <trkpt lat="56.89276064327" lon="14.833444071412">
        <ele>175.8</ele>
        <time>2020-02-10T17:57:12Z</time>
      </trkpt>
      <trkpt lat="56.892583030809" lon="14.833464523248">
        <ele>176.8</ele>
        <time>2020-02-10T17:57:20Z</time>
      </trkpt>
      <trkpt lat="56.892557885109" lon="14.833452704769">
        <ele>177</ele>
        <time>2020-02-10T17:57:21Z</time>
      </trkpt>
      <trkpt lat="56.892478592335" lon="14.833449938742">
        <ele>178.2</ele>
        <time>2020-02-10T17:57:24Z</time>
      </trkpt>
      <trkpt lat="56.892302488616" lon="14.833543648384">
        <ele>178.8</ele>
        <time>2020-02-10T17:57:31Z</time>
      </trkpt>
      <trkpt lat="56.892254041234" lon="14.833567201523">
        <ele>179.8</ele>
        <time>2020-02-10T17:57:33Z</time>
      </trkpt>
      <trkpt lat="56.892184555283" lon="14.833552952293">
        <ele>181</ele>
        <time>2020-02-10T17:57:36Z</time>
      </trkpt>
      <trkpt lat="56.891980372199" lon="14.83359762782">
        <ele>181.2</ele>
        <time>2020-02-10T17:57:42Z</time>
      </trkpt>
      <trkpt lat="56.89180007753" lon="14.833678848431">
        <ele>181</ele>
        <time>2020-02-10T17:57:48Z</time>
      </trkpt>
      <trkpt lat="56.891600253034" lon="14.833781275249">
        <ele>181</ele>
        <time>2020-02-10T17:57:57Z</time>
      </trkpt>
      <trkpt lat="56.891388610059" lon="14.833866267715">
        <ele>182</ele>
        <time>2020-02-10T17:58:04Z</time>
      </trkpt>
      <trkpt lat="56.891268497432" lon="14.833911697613">
        <ele>183</ele>
        <time>2020-02-10T17:58:09Z</time>
      </trkpt>
      <trkpt lat="56.891050568032" lon="14.833804074017">
        <ele>183</ele>
        <time>2020-02-10T17:58:16Z</time>
      </trkpt>
      <trkpt lat="56.89092584536" lon="14.833746322726">
        <ele>181.8</ele>
        <time>2020-02-10T17:58:19Z</time>
      </trkpt>
      <trkpt lat="56.890763739414" lon="14.833647248668">
        <ele>180.8</ele>
        <time>2020-02-10T17:58:24Z</time>
      </trkpt>
      <trkpt lat="56.89058386384" lon="14.833546414411">
        <ele>180</ele>
        <time>2020-02-10T17:58:29Z</time>
      </trkpt>
      <trkpt lat="56.890488813094" lon="14.833453123864">
        <ele>179.6</ele>
        <time>2020-02-10T17:58:32Z</time>
      </trkpt>
      <trkpt lat="56.890397534203" lon="14.83334197987">
        <ele>178.6</ele>
        <time>2020-02-10T17:58:35Z</time>
      </trkpt>
      <trkpt lat="56.890341040197" lon="14.8332472644">
        <ele>177.6</ele>
        <time>2020-02-10T17:58:37Z</time>
      </trkpt>
      <trkpt lat="56.890238194284" lon="14.833070238672">
        <ele>176.2</ele>
        <time>2020-02-10T17:58:41Z</time>
      </trkpt>
      <trkpt lat="56.890083212953" lon="14.832842586268">
        <ele>174.8</ele>
        <time>2020-02-10T17:58:47Z</time>
      </trkpt>
      <trkpt lat="56.889963184145" lon="14.832573862554">
        <ele>174.2</ele>
        <time>2020-02-10T17:58:53Z</time>
      </trkpt>
      <trkpt lat="56.889844831717" lon="14.832314945663">
        <ele>174.6</ele>
        <time>2020-02-10T17:58:59Z</time>
      </trkpt>
      <trkpt lat="56.889724048538" lon="14.832059968265">
        <ele>174.6</ele>
        <time>2020-02-10T17:59:05Z</time>
      </trkpt>
      <trkpt lat="56.889605528472" lon="14.831778671701">
        <ele>175</ele>
        <time>2020-02-10T17:59:13Z</time>
      </trkpt>
      <trkpt lat="56.889440488861" lon="14.831631066442">
        <ele>174.2</ele>
        <time>2020-02-10T17:59:19Z</time>
      </trkpt>
      <trkpt lat="56.889389946004" lon="14.831587312924">
        <ele>173.8</ele>
        <time>2020-02-10T17:59:21Z</time>
      </trkpt>
      <trkpt lat="56.889329344867" lon="14.831529310176">
        <ele>172.8</ele>
        <time>2020-02-10T17:59:23Z</time>
      </trkpt>
      <trkpt lat="56.889201939987" lon="14.83142923029">
        <ele>171.4</ele>
        <time>2020-02-10T17:59:27Z</time>
      </trkpt>
      <trkpt lat="56.889078726057" lon="14.831336107381">
        <ele>170.4</ele>
        <time>2020-02-10T17:59:31Z</time>
      </trkpt>
      <trkpt lat="56.888930450246" lon="14.831209959786">
        <ele>168.8</ele>
        <time>2020-02-10T17:59:35Z</time>
      </trkpt>
      <trkpt lat="56.888834142215" lon="14.831104599303">
        <ele>167.2</ele>
        <time>2020-02-10T17:59:38Z</time>
      </trkpt>
      <trkpt lat="56.888730122836" lon="14.831024216882">
        <ele>166</ele>
        <time>2020-02-10T17:59:41Z</time>
      </trkpt>
      <trkpt lat="56.888661391256" lon="14.830964621573">
        <ele>165</ele>
        <time>2020-02-10T17:59:43Z</time>
      </trkpt>
      <trkpt lat="56.88858142793" lon="14.830836210865">
        <ele>163.6</ele>
        <time>2020-02-10T17:59:46Z</time>
      </trkpt>
      <trkpt lat="56.888437343069" lon="14.83069749042">
        <ele>162.4</ele>
        <time>2020-02-10T17:59:51Z</time>
      </trkpt>
      <trkpt lat="56.888266100852" lon="14.830790278053">
        <ele>161.6</ele>
        <time>2020-02-10T17:59:58Z</time>
      </trkpt>
      <trkpt lat="56.888126039303" lon="14.831018852466">
        <ele>161.6</ele>
        <time>2020-02-10T18:00:05Z</time>
      </trkpt>
      <trkpt lat="56.88807432298" lon="14.831077525766">
        <ele>161.4</ele>
        <time>2020-02-10T18:00:07Z</time>
      </trkpt>
      <trkpt lat="56.887883383298" lon="14.831163607879">
        <ele>161</ele>
        <time>2020-02-10T18:00:13Z</time>
      </trkpt>
      <trkpt lat="56.887684899906" lon="14.831258155711">
        <ele>161.4</ele>
        <time>2020-02-10T18:00:21Z</time>
      </trkpt>
      <trkpt lat="56.887493373491" lon="14.831336610295">
        <ele>161.2</ele>
        <time>2020-02-10T18:00:27Z</time>
      </trkpt>
      <trkpt lat="56.887316850677" lon="14.831452951067">
        <ele>161.4</ele>
        <time>2020-02-10T18:00:32Z</time>
      </trkpt>
      <trkpt lat="56.887171257074" lon="14.831701893497">
        <ele>162.4</ele>
        <time>2020-02-10T18:00:38Z</time>
      </trkpt>
      <trkpt lat="56.887107135539" lon="14.831850336946">
        <ele>163.4</ele>
        <time>2020-02-10T18:00:42Z</time>
      </trkpt>
      <trkpt lat="56.887076541604" lon="14.831989727943">
        <ele>164.6</ele>
        <time>2020-02-10T18:00:45Z</time>
      </trkpt>
      <trkpt lat="56.887061705641" lon="14.832121156135">
        <ele>165.2</ele>
        <time>2020-02-10T18:00:48Z</time>
      </trkpt>
      <trkpt lat="56.88705676032" lon="14.832161305436">
        <ele>165.6</ele>
        <time>2020-02-10T18:00:49Z</time>
      </trkpt>
      <trkpt lat="56.887038571597" lon="14.832259625123">
        <ele>166.6</ele>
        <time>2020-02-10T18:00:52Z</time>
      </trkpt>
      <trkpt lat="56.887031195525" lon="14.83236297395">
        <ele>167.8</ele>
        <time>2020-02-10T18:00:55Z</time>
      </trkpt>
      <trkpt lat="56.887030524973" lon="14.832434723014">
        <ele>169.2</ele>
        <time>2020-02-10T18:00:57Z</time>
      </trkpt>
      <trkpt lat="56.887024154729" lon="14.832513429055">
        <ele>170.6</ele>
        <time>2020-02-10T18:00:59Z</time>
      </trkpt>
      <trkpt lat="56.886979395383" lon="14.832675954096">
        <ele>172</ele>
        <time>2020-02-10T18:01:02Z</time>
      </trkpt>
      <trkpt lat="56.886843608603" lon="14.832929255114">
        <ele>171</ele>
        <time>2020-02-10T18:01:08Z</time>
      </trkpt>
      <trkpt lat="56.88668208939" lon="14.833069735758">
        <ele>170.2</ele>
        <time>2020-02-10T18:01:14Z</time>
      </trkpt>
      <trkpt lat="56.886659122984" lon="14.833079961676">
        <ele>169.8</ele>
        <time>2020-02-10T18:01:15Z</time>
      </trkpt>
      <trkpt lat="56.886466423103" lon="14.833084404083">
        <ele>169.6</ele>
        <time>2020-02-10T18:01:23Z</time>
      </trkpt>
      <trkpt lat="56.886253355205" lon="14.832993460468">
        <ele>169.4</ele>
        <time>2020-02-10T18:01:31Z</time>
      </trkpt>
      <trkpt lat="56.886217229216" lon="14.832974098279">
        <ele>168.8</ele>
        <time>2020-02-10T18:01:32Z</time>
      </trkpt>
      <trkpt lat="56.886155873708" lon="14.832929758028">
        <ele>167.4</ele>
        <time>2020-02-10T18:01:34Z</time>
      </trkpt>
      <trkpt lat="56.886046238456" lon="14.832863624837">
        <ele>166.2</ele>
        <time>2020-02-10T18:01:37Z</time>
      </trkpt>
      <trkpt lat="56.885979937627" lon="14.832816853835">
        <ele>165</ele>
        <time>2020-02-10T18:01:39Z</time>
      </trkpt>
      <trkpt lat="56.885797966578" lon="14.832677379019">
        <ele>164.8</ele>
        <time>2020-02-10T18:01:46Z</time>
      </trkpt>
      <trkpt lat="56.885651702423" lon="14.832628177266">
        <ele>166</ele>
        <time>2020-02-10T18:01:52Z</time>
      </trkpt>
      <trkpt lat="56.885499235662" lon="14.832643264686">
        <ele>167</ele>
        <time>2020-02-10T18:01:57Z</time>
      </trkpt>
      <trkpt lat="56.88529488494" lon="14.832677462838">
        <ele>167.2</ele>
        <time>2020-02-10T18:02:03Z</time>
      </trkpt>
      <trkpt lat="56.885090031304" lon="14.832672182241">
        <ele>168.2</ele>
        <time>2020-02-10T18:02:10Z</time>
      </trkpt>
      <trkpt lat="56.884937480724" lon="14.832531533959">
        <ele>167</ele>
        <time>2020-02-10T18:02:15Z</time>
      </trkpt>
      <trkpt lat="56.884869252058" lon="14.8324593658">
        <ele>165.2</ele>
        <time>2020-02-10T18:02:17Z</time>
      </trkpt>
      <trkpt lat="56.884809489111" lon="14.832376552628">
        <ele>163.6</ele>
        <time>2020-02-10T18:02:19Z</time>
      </trkpt>
      <trkpt lat="56.884755006761" lon="14.832284351728">
        <ele>162.4</ele>
        <time>2020-02-10T18:02:21Z</time>
      </trkpt>
      <trkpt lat="56.884615699583" lon="14.832063321025">
        <ele>162</ele>
        <time>2020-02-10T18:02:27Z</time>
      </trkpt>
      <trkpt lat="56.884472955826" lon="14.831830471843">
        <ele>161.4</ele>
        <time>2020-02-10T18:02:33Z</time>
      </trkpt>
      <trkpt lat="56.884352256466" lon="14.831577757558">
        <ele>161.4</ele>
        <time>2020-02-10T18:02:39Z</time>
      </trkpt>
      <trkpt lat="56.884328200413" lon="14.831542134483">
        <ele>161.2</ele>
        <time>2020-02-10T18:02:40Z</time>
      </trkpt>
      <trkpt lat="56.884220576817" lon="14.831449095393">
        <ele>161</ele>
        <time>2020-02-10T18:02:45Z</time>
      </trkpt>
      <trkpt lat="56.884064841115" lon="14.831636011763">
        <ele>161.6</ele>
        <time>2020-02-10T18:02:51Z</time>
      </trkpt>
      <trkpt lat="56.883930479258" lon="14.831862909796">
        <ele>162</ele>
        <time>2020-02-10T18:02:56Z</time>
      </trkpt>
      <trkpt lat="56.88380542131" lon="14.832114534434">
        <ele>161.8</ele>
        <time>2020-02-10T18:03:02Z</time>
      </trkpt>
      <trkpt lat="56.883690170185" lon="14.832376636447">
        <ele>162.4</ele>
        <time>2020-02-10T18:03:08Z</time>
      </trkpt>
      <trkpt lat="56.883577265992" lon="14.832649551111">
        <ele>161.6</ele>
        <time>2020-02-10T18:03:14Z</time>
      </trkpt>
      <trkpt lat="56.883561256563" lon="14.832674948268">
        <ele>161.4</ele>
        <time>2020-02-10T18:03:15Z</time>
      </trkpt>
      <trkpt lat="56.883373418184" lon="14.832850465254">
        <ele>161</ele>
        <time>2020-02-10T18:03:22Z</time>
      </trkpt>
      <trkpt lat="56.883201840691" lon="14.833051379397">
        <ele>161.6</ele>
        <time>2020-02-10T18:03:28Z</time>
      </trkpt>
      <trkpt lat="56.88314576578" lon="14.833304345139">
        <ele>161.4</ele>
        <time>2020-02-10T18:03:33Z</time>
      </trkpt>
      <trkpt lat="56.88320863003" lon="14.833465696714">
        <ele>162.6</ele>
        <time>2020-02-10T18:03:37Z</time>
      </trkpt>
      <trkpt lat="56.883287000795" lon="14.833564686953">
        <ele>163.8</ele>
        <time>2020-02-10T18:03:41Z</time>
      </trkpt>
      <trkpt lat="56.883422619937" lon="14.833705419054">
        <ele>165</ele>
        <time>2020-02-10T18:03:47Z</time>
      </trkpt>
      <trkpt lat="56.883583636236" lon="14.833858807824">
        <ele>165.6</ele>
        <time>2020-02-10T18:03:53Z</time>
      </trkpt>
      <trkpt lat="56.883778012497" lon="14.833967856343">
        <ele>165</ele>
        <time>2020-02-10T18:03:59Z</time>
      </trkpt>
      <trkpt lat="56.883949338533" lon="14.834084364753">
        <ele>165.2</ele>
        <time>2020-02-10T18:04:05Z</time>
      </trkpt>
      <trkpt lat="56.884125023157" lon="14.834180421327">
        <ele>164</ele>
        <time>2020-02-10T18:04:11Z</time>
      </trkpt>
      <trkpt lat="56.884166262105" lon="14.834215457669">
        <ele>163.8</ele>
        <time>2020-02-10T18:04:13Z</time>
      </trkpt>
      <trkpt lat="56.884303389989" lon="14.834465908841">
        <ele>164.8</ele>
        <time>2020-02-10T18:04:19Z</time>
      </trkpt>
      <trkpt lat="56.884429369946" lon="14.834762125187">
        <ele>165.8</ele>
        <time>2020-02-10T18:04:25Z</time>
      </trkpt>
      <trkpt lat="56.884518804819" lon="14.83501500711">
        <ele>166.8</ele>
        <time>2020-02-10T18:04:31Z</time>
      </trkpt>
      <trkpt lat="56.884605138389" lon="14.835313067474">
        <ele>168</ele>
        <time>2020-02-10T18:04:37Z</time>
      </trkpt>
      <trkpt lat="56.884677558005" lon="14.835616659892">
        <ele>168.8</ele>
        <time>2020-02-10T18:04:44Z</time>
      </trkpt>
      <trkpt lat="56.884686778095" lon="14.83564113504">
        <ele>169.2</ele>
        <time>2020-02-10T18:04:45Z</time>
      </trkpt>
      <trkpt lat="56.884717707306" lon="14.835680613789">
        <ele>170.4</ele>
        <time>2020-02-10T18:04:47Z</time>
      </trkpt>
      <trkpt lat="56.884757856607" lon="14.835712465009">
        <ele>171.6</ele>
        <time>2020-02-10T18:04:49Z</time>
      </trkpt>
      <trkpt lat="56.884952568144" lon="14.835695701209">
        <ele>172.2</ele>
        <time>2020-02-10T18:04:56Z</time>
      </trkpt>
      <trkpt lat="56.885143088731" lon="14.835653456433">
        <ele>171.8</ele>
        <time>2020-02-10T18:05:02Z</time>
      </trkpt>
      <trkpt lat="56.885332435852" lon="14.835586904147">
        <ele>171.6</ele>
        <time>2020-02-10T18:05:08Z</time>
      </trkpt>
      <trkpt lat="56.885509964494" lon="14.835465450416">
        <ele>171.4</ele>
        <time>2020-02-10T18:05:14Z</time>
      </trkpt>
      <trkpt lat="56.885694617751" lon="14.835361011942">
        <ele>171</ele>
        <time>2020-02-10T18:05:20Z</time>
      </trkpt>
      <trkpt lat="56.885728061532" lon="14.835340727744">
        <ele>170.6</ele>
        <time>2020-02-10T18:05:21Z</time>
      </trkpt>
      <trkpt lat="56.885898297921" lon="14.835303428289">
        <ele>171.6</ele>
        <time>2020-02-10T18:05:28Z</time>
      </trkpt>
      <trkpt lat="56.885977087781" lon="14.835299907891">
        <ele>172.8</ele>
        <time>2020-02-10T18:05:31Z</time>
      </trkpt>
      <trkpt lat="56.88618504272" lon="14.835314743854">
        <ele>173.6</ele>
        <time>2020-02-10T18:05:38Z</time>
      </trkpt>
      <trkpt lat="56.886362319905" lon="14.835472072117">
        <ele>173.8</ele>
        <time>2020-02-10T18:05:45Z</time>
      </trkpt>
      <trkpt lat="56.886380424809" lon="14.835516077092">
        <ele>173.8</ele>
        <time>2020-02-10T18:05:46Z</time>
      </trkpt>
      <trkpt lat="56.886511182449" lon="14.835764768065">
        <ele>174.8</ele>
        <time>2020-02-10T18:05:52Z</time>
      </trkpt>
      <trkpt lat="56.886542698393" lon="14.835859483535">
        <ele>175</ele>
        <time>2020-02-10T18:05:54Z</time>
      </trkpt>
      <trkpt lat="56.886577818554" lon="14.836123178109">
        <ele>176</ele>
        <time>2020-02-10T18:06:00Z</time>
      </trkpt>
      <trkpt lat="56.886615956199" lon="14.836462896516">
        <ele>176.6</ele>
        <time>2020-02-10T18:06:05Z</time>
      </trkpt>
      <trkpt lat="56.886660044993" lon="14.83664863942">
        <ele>175</ele>
        <time>2020-02-10T18:06:08Z</time>
      </trkpt>
      <trkpt lat="56.886701786855" lon="14.836808482253">
        <ele>173.6</ele>
        <time>2020-02-10T18:06:11Z</time>
      </trkpt>
      <trkpt lat="56.886791221728" lon="14.837102016391">
        <ele>173</ele>
        <time>2020-02-10T18:06:17Z</time>
      </trkpt>
      <trkpt lat="56.886876298013" lon="14.837391108122">
        <ele>173.4</ele>
        <time>2020-02-10T18:06:23Z</time>
      </trkpt>
      <trkpt lat="56.886957183348" lon="14.837699142947">
        <ele>174.2</ele>
        <time>2020-02-10T18:06:30Z</time>
      </trkpt>
      <trkpt lat="56.886983753971" lon="14.837778435721">
        <ele>174.8</ele>
        <time>2020-02-10T18:06:32Z</time>
      </trkpt>
      <trkpt lat="56.887021807797" lon="14.837850352423">
        <ele>176</ele>
        <time>2020-02-10T18:06:34Z</time>
      </trkpt>
      <trkpt lat="56.88704754023" lon="14.837935344889">
        <ele>176.8</ele>
        <time>2020-02-10T18:06:36Z</time>
      </trkpt>
      <trkpt lat="56.887071093369" lon="14.83797130324">
        <ele>177</ele>
        <time>2020-02-10T18:06:37Z</time>
      </trkpt>
      <trkpt lat="56.887212579841" lon="14.838213456331">
        <ele>177.4</ele>
        <time>2020-02-10T18:06:43Z</time>
      </trkpt>
      <trkpt lat="56.88730067361" lon="14.838386961661">
        <ele>178.2</ele>
        <time>2020-02-10T18:06:47Z</time>
      </trkpt>
      <trkpt lat="56.887408297206" lon="14.838651662063">
        <ele>178</ele>
        <time>2020-02-10T18:06:53Z</time>
      </trkpt>
      <trkpt lat="56.887524637978" lon="14.83890169414">
        <ele>177</ele>
        <time>2020-02-10T18:06:59Z</time>
      </trkpt>
      <trkpt lat="56.887643241863" lon="14.839150049837">
        <ele>177.6</ele>
        <time>2020-02-10T18:07:05Z</time>
      </trkpt>
      <trkpt lat="56.887770395286" lon="14.839428580374">
        <ele>177.8</ele>
        <time>2020-02-10T18:07:11Z</time>
      </trkpt>
      <trkpt lat="56.887892687207" lon="14.839721276322">
        <ele>176.8</ele>
        <time>2020-02-10T18:07:17Z</time>
      </trkpt>
      <trkpt lat="56.887962089339" lon="14.840046829318">
        <ele>177</ele>
        <time>2020-02-10T18:07:24Z</time>
      </trkpt>
      <trkpt lat="56.887990420161" lon="14.840195440405">
        <ele>177.4</ele>
        <time>2020-02-10T18:07:27Z</time>
      </trkpt>
      <trkpt lat="56.888006261952" lon="14.840354528867">
        <ele>178.6</ele>
        <time>2020-02-10T18:07:30Z</time>
      </trkpt>
      <trkpt lat="56.888057140085" lon="14.840631299205">
        <ele>179.6</ele>
        <time>2020-02-10T18:07:35Z</time>
      </trkpt>
      <trkpt lat="56.888192172494" lon="14.840914523606">
        <ele>180.2</ele>
        <time>2020-02-10T18:07:42Z</time>
      </trkpt>
      <trkpt lat="56.888292420018" lon="14.841023069211">
        <ele>180.8</ele>
        <time>2020-02-10T18:07:46Z</time>
      </trkpt>
      <trkpt lat="56.888482102415" lon="14.840972107259">
        <ele>181</ele>
        <time>2020-02-10T18:07:55Z</time>
      </trkpt>
      <trkpt lat="56.888686620775" lon="14.840896167245">
        <ele>181</ele>
        <time>2020-02-10T18:08:02Z</time>
      </trkpt>
      <trkpt lat="56.888766165006" lon="14.840865154215">
        <ele>179.4</ele>
        <time>2020-02-10T18:08:04Z</time>
      </trkpt>
      <trkpt lat="56.888839841907" lon="14.840827435665">
        <ele>177.8</ele>
        <time>2020-02-10T18:08:06Z</time>
      </trkpt>
      <trkpt lat="56.88894939334" lon="14.840792315504">
        <ele>176.6</ele>
        <time>2020-02-10T18:08:09Z</time>
      </trkpt>
      <trkpt lat="56.889049640864" lon="14.840766583071">
        <ele>175.4</ele>
        <time>2020-02-10T18:08:12Z</time>
      </trkpt>
      <trkpt lat="56.889245777324" lon="14.840658372742">
        <ele>175.4</ele>
        <time>2020-02-10T18:08:19Z</time>
      </trkpt>
      <trkpt lat="56.889445434182" lon="14.840516718632">
        <ele>175.8</ele>
        <time>2020-02-10T18:08:26Z</time>
      </trkpt>
      <trkpt lat="56.889600164056" lon="14.840392498874">
        <ele>176.6</ele>
        <time>2020-02-10T18:08:32Z</time>
      </trkpt>
      <trkpt lat="56.889728323307" lon="14.840263166157">
        <ele>177.8</ele>
        <time>2020-02-10T18:08:37Z</time>
      </trkpt>
      <trkpt lat="56.889788924444" lon="14.840176078216">
        <ele>179</ele>
        <time>2020-02-10T18:08:40Z</time>
      </trkpt>
      <trkpt lat="56.889963519421" lon="14.840034172649">
        <ele>178.8</ele>
        <time>2020-02-10T18:08:47Z</time>
      </trkpt>
      <trkpt lat="56.890123026978" lon="14.839934428039">
        <ele>180.2</ele>
        <time>2020-02-10T18:08:53Z</time>
      </trkpt>
      <trkpt lat="56.890332323021" lon="14.839848429745">
        <ele>180.4</ele>
        <time>2020-02-10T18:08:59Z</time>
      </trkpt>
      <trkpt lat="56.890532650431" lon="14.839784475848">
        <ele>181</ele>
        <time>2020-02-10T18:09:06Z</time>
      </trkpt>
      <trkpt lat="56.890721913733" lon="14.839673583311">
        <ele>181</ele>
        <time>2020-02-10T18:09:12Z</time>
      </trkpt>
      <trkpt lat="56.890915619442" lon="14.839531258649">
        <ele>181</ele>
        <time>2020-02-10T18:09:19Z</time>
      </trkpt>
      <trkpt lat="56.891001701555" lon="14.839464287268">
        <ele>181.2</ele>
        <time>2020-02-10T18:09:22Z</time>
      </trkpt>
      <trkpt lat="56.891197167463" lon="14.839302935693">
        <ele>181.2</ele>
        <time>2020-02-10T18:09:28Z</time>
      </trkpt>
      <trkpt lat="56.891258522971" lon="14.839242921289">
        <ele>180.2</ele>
        <time>2020-02-10T18:09:30Z</time>
      </trkpt>
      <trkpt lat="56.891310406932" lon="14.839169831121">
        <ele>179</ele>
        <time>2020-02-10T18:09:32Z</time>
      </trkpt>
      <trkpt lat="56.891409648628" lon="14.839012083763">
        <ele>177.6</ele>
        <time>2020-02-10T18:09:36Z</time>
      </trkpt>
      <trkpt lat="56.891585584709" lon="14.838886187625">
        <ele>177</ele>
        <time>2020-02-10T18:09:43Z</time>
      </trkpt>
      <trkpt lat="56.891657920506" lon="14.838888618376">
        <ele>175.6</ele>
        <time>2020-02-10T18:09:45Z</time>
      </trkpt>
      <trkpt lat="56.891757078383" lon="14.838885936168">
        <ele>174.2</ele>
        <time>2020-02-10T18:09:49Z</time>
      </trkpt>
      <trkpt lat="56.891955897051" lon="14.838833633112">
        <ele>174.6</ele>
        <time>2020-02-10T18:09:55Z</time>
      </trkpt>
      <trkpt lat="56.892153542253" lon="14.838726344792">
        <ele>174.8</ele>
        <time>2020-02-10T18:10:01Z</time>
      </trkpt>
      <trkpt lat="56.892182627446" lon="14.838695164124">
        <ele>175.2</ele>
        <time>2020-02-10T18:10:02Z</time>
      </trkpt>
      <trkpt lat="56.892345990677" lon="14.838509840315">
        <ele>175.6</ele>
        <time>2020-02-10T18:10:08Z</time>
      </trkpt>
      <trkpt lat="56.89252595007" lon="14.838370616956">
        <ele>174.8</ele>
        <time>2020-02-10T18:10:14Z</time>
      </trkpt>
      <trkpt lat="56.892681769591" lon="14.838124775829">
        <ele>174.4</ele>
        <time>2020-02-10T18:10:21Z</time>
      </trkpt>
      <trkpt lat="56.892807078996" lon="14.83788413148">
        <ele>174.4</ele>
        <time>2020-02-10T18:10:27Z</time>
      </trkpt>
      <trkpt lat="56.892946386174" lon="14.837656730533">
        <ele>174.6</ele>
        <time>2020-02-10T18:10:33Z</time>
      </trkpt>
      <trkpt lat="56.893082340592" lon="14.837417175831">
        <ele>175.4</ele>
        <time>2020-02-10T18:10:39Z</time>
      </trkpt>
      <trkpt lat="56.893250481506" lon="14.837235288601">
        <ele>174.8</ele>
        <time>2020-02-10T18:10:45Z</time>
      </trkpt>
      <trkpt lat="56.893349639383" lon="14.837053736647">
        <ele>174</ele>
        <time>2020-02-10T18:10:49Z</time>
      </trkpt>
      <trkpt lat="56.893493388968" lon="14.836774200282">
        <ele>173.6</ele>
        <time>2020-02-10T18:10:55Z</time>
      </trkpt>
      <trkpt lat="56.893648705575" lon="14.836607065196">
        <ele>174</ele>
        <time>2020-02-10T18:11:01Z</time>
      </trkpt>
      <trkpt lat="56.893813493729" lon="14.836406821605">
        <ele>174.2</ele>
        <time>2020-02-10T18:11:08Z</time>
      </trkpt>
      <trkpt lat="56.893983311023" lon="14.836184365979">
        <ele>173.4</ele>
        <time>2020-02-10T18:11:15Z</time>
      </trkpt>
      <trkpt lat="56.894062603797" lon="14.83611806515">
        <ele>173</ele>
        <time>2020-02-10T18:11:18Z</time>
      </trkpt>
      <trkpt lat="56.894233007824" lon="14.83601412959">
        <ele>173</ele>
        <time>2020-02-10T18:11:24Z</time>
      </trkpt>
      <trkpt lat="56.894424785696" lon="14.83594958896">
        <ele>173.8</ele>
        <time>2020-02-10T18:11:30Z</time>
      </trkpt>
      <trkpt lat="56.894610696238" lon="14.835852610377">
        <ele>174</ele>
        <time>2020-02-10T18:11:36Z</time>
      </trkpt>
      <trkpt lat="56.894779172428" lon="14.835729480266">
        <ele>173</ele>
        <time>2020-02-10T18:11:42Z</time>
      </trkpt>
      <trkpt lat="56.894962149305" lon="14.835602326843">
        <ele>173.2</ele>
        <time>2020-02-10T18:11:48Z</time>
      </trkpt>
      <trkpt lat="56.895121237767" lon="14.83550283369">
        <ele>174</ele>
        <time>2020-02-10T18:11:54Z</time>
      </trkpt>
      <trkpt lat="56.895300861884" lon="14.835402837623">
        <ele>173.8</ele>
        <time>2020-02-10T18:12:01Z</time>
      </trkpt>
      <trkpt lat="56.895387279273" lon="14.835344080504">
        <ele>175.6</ele>
        <time>2020-02-10T18:12:04Z</time>
      </trkpt>
      <trkpt lat="56.895497668896" lon="14.835306613411">
        <ele>176.8</ele>
        <time>2020-02-10T18:12:08Z</time>
      </trkpt>
      <trkpt lat="56.895666983276" lon="14.835284317557">
        <ele>177.8</ele>
        <time>2020-02-10T18:12:14Z</time>
      </trkpt>
      <trkpt lat="56.895872088369" lon="14.83521449633">
        <ele>179.2</ele>
        <time>2020-02-10T18:12:21Z</time>
      </trkpt>
      <trkpt lat="56.89607987567" lon="14.835121038145">
        <ele>178.8</ele>
        <time>2020-02-10T18:12:27Z</time>
      </trkpt>
      <trkpt lat="56.89613771078" lon="14.835089438382">
        <ele>178.2</ele>
        <time>2020-02-10T18:12:29Z</time>
      </trkpt>
      <trkpt lat="56.896216835916" lon="14.835063789768">
        <ele>177</ele>
        <time>2020-02-10T18:12:32Z</time>
      </trkpt>
      <trkpt lat="56.896419929353" lon="14.83503596186">
        <ele>176.2</ele>
        <time>2020-02-10T18:12:39Z</time>
      </trkpt>
      <trkpt lat="56.896606175171" lon="14.835037219145">
        <ele>176.4</ele>
        <time>2020-02-10T18:12:45Z</time>
      </trkpt>
      <trkpt lat="56.896799629423" lon="14.835016934947">
        <ele>176.6</ele>
        <time>2020-02-10T18:12:51Z</time>
      </trkpt>
      <trkpt lat="56.896990401467" lon="14.835085163613">
        <ele>176.4</ele>
        <time>2020-02-10T18:12:57Z</time>
      </trkpt>
      <trkpt lat="56.897161392227" lon="14.835274175458">
        <ele>177.2</ele>
        <time>2020-02-10T18:13:04Z</time>
      </trkpt>
      <trkpt lat="56.897356355221" lon="14.835395713008">
        <ele>177.8</ele>
        <time>2020-02-10T18:13:11Z</time>
      </trkpt>
      <trkpt lat="56.897475126744" lon="14.835420774889">
        <ele>178.2</ele>
        <time>2020-02-10T18:13:16Z</time>
      </trkpt>
      <trkpt lat="56.897657181612" lon="14.835446423503">
        <ele>177.8</ele>
        <time>2020-02-10T18:13:23Z</time>
      </trkpt>
      <trkpt lat="56.897733708359" lon="14.835417673586">
        <ele>177.2</ele>
        <time>2020-02-10T18:13:25Z</time>
      </trkpt>
      <trkpt lat="56.897894640839" lon="14.83533100474">
        <ele>176</ele>
        <time>2020-02-10T18:13:29Z</time>
      </trkpt>
      <trkpt lat="56.898093124231" lon="14.835193876856">
        <ele>175.2</ele>
        <time>2020-02-10T18:13:35Z</time>
      </trkpt>
      <trkpt lat="56.898123801985" lon="14.835154649564">
        <ele>175</ele>
        <time>2020-02-10T18:13:36Z</time>
      </trkpt>
      <trkpt lat="56.898298983695" lon="14.834983574985">
        <ele>174.4</ele>
        <time>2020-02-10T18:13:42Z</time>
      </trkpt>
      <trkpt lat="56.898367882913" lon="14.834929092635">
        <ele>174</ele>
        <time>2020-02-10T18:13:44Z</time>
      </trkpt>
      <trkpt lat="56.898529988859" lon="14.834776793512">
        <ele>173.4</ele>
        <time>2020-02-10T18:13:51Z</time>
      </trkpt>
      <trkpt lat="56.898718330152" lon="14.834814092967">
        <ele>173.2</ele>
        <time>2020-02-10T18:13:57Z</time>
      </trkpt>
      <trkpt lat="56.898813129441" lon="14.8348565892">
        <ele>172.8</ele>
        <time>2020-02-10T18:14:00Z</time>
      </trkpt>
      <trkpt lat="56.89897414574" lon="14.835119948498">
        <ele>171.8</ele>
        <time>2020-02-10T18:14:06Z</time>
      </trkpt>
      <trkpt lat="56.899102304991" lon="14.835359335562">
        <ele>171</ele>
        <time>2020-02-10T18:14:11Z</time>
      </trkpt>
      <trkpt lat="56.899174305512" lon="14.835448435159">
        <ele>170.6</ele>
        <time>2020-02-10T18:14:14Z</time>
      </trkpt>
      <trkpt lat="56.899298357632" lon="14.835473832316">
        <ele>169.4</ele>
        <time>2020-02-10T18:14:19Z</time>
      </trkpt>
      <trkpt lat="56.899453087506" lon="14.835309127981">
        <ele>168.8</ele>
        <time>2020-02-10T18:14:25Z</time>
      </trkpt>
      <trkpt lat="56.899647966681" lon="14.835136879936">
        <ele>169.4</ele>
        <time>2020-02-10T18:14:31Z</time>
      </trkpt>
      <trkpt lat="56.899816778147" lon="14.83491861526">
        <ele>168.6</ele>
        <time>2020-02-10T18:14:37Z</time>
      </trkpt>
      <trkpt lat="56.899973854953" lon="14.834761370816">
        <ele>169.8</ele>
        <time>2020-02-10T18:14:43Z</time>
      </trkpt>
      <trkpt lat="56.900140487125" lon="14.83463530704">
        <ele>170.2</ele>
        <time>2020-02-10T18:14:49Z</time>
      </trkpt>
      <trkpt lat="56.9002850749" lon="14.834548638194">
        <ele>170.4</ele>
        <time>2020-02-10T18:14:54Z</time>
      </trkpt>
      <trkpt lat="56.900460424248" lon="14.834450402326">
        <ele>170.6</ele>
        <time>2020-02-10T18:15:00Z</time>
      </trkpt>
      <trkpt lat="56.900652034482" lon="14.834320734333">
        <ele>169.4</ele>
        <time>2020-02-10T18:15:07Z</time>
      </trkpt>
      <trkpt lat="56.900755718585" lon="14.834015297897">
        <ele>168.4</ele>
        <time>2020-02-10T18:15:13Z</time>
      </trkpt>
      <trkpt lat="56.900775918964" lon="14.833695193136">
        <ele>168.4</ele>
        <time>2020-02-10T18:15:19Z</time>
      </trkpt>
      <trkpt lat="56.900723532089" lon="14.833358156937">
        <ele>167.8</ele>
        <time>2020-02-10T18:15:25Z</time>
      </trkpt>
      <trkpt lat="56.900583973454" lon="14.833068646111">
        <ele>168.6</ele>
        <time>2020-02-10T18:15:31Z</time>
      </trkpt>
      <trkpt lat="56.900429746494" lon="14.832838311499">
        <ele>168.4</ele>
        <time>2020-02-10T18:15:37Z</time>
      </trkpt>
      <trkpt lat="56.900303347442" lon="14.832728927704">
        <ele>169.4</ele>
        <time>2020-02-10T18:15:42Z</time>
      </trkpt>
      <trkpt lat="56.900276190086" lon="14.832706128936">
        <ele>168.2</ele>
        <time>2020-02-10T18:15:43Z</time>
      </trkpt>
      <trkpt lat="56.90017191925" lon="14.832608060706">
        <ele>166.8</ele>
        <time>2020-02-10T18:15:47Z</time>
      </trkpt>
      <trkpt lat="56.900001263766" lon="14.832454923393">
        <ele>167.4</ele>
        <time>2020-02-10T18:15:54Z</time>
      </trkpt>
      <trkpt lat="56.899909901056" lon="14.832370098565">
        <ele>168</ele>
        <time>2020-02-10T18:15:58Z</time>
      </trkpt>
      <trkpt lat="56.899722984686" lon="14.83224898011">
        <ele>168.8</ele>
        <time>2020-02-10T18:16:04Z</time>
      </trkpt>
      <trkpt lat="56.899624916456" lon="14.832180499987">
        <ele>169</ele>
        <time>2020-02-10T18:16:08Z</time>
      </trkpt>
      <trkpt lat="56.899582084947" lon="14.831994002712">
        <ele>170.2</ele>
        <time>2020-02-10T18:16:13Z</time>
      </trkpt>
      <trkpt lat="56.899549227899" lon="14.831743719178">
        <ele>171.4</ele>
        <time>2020-02-10T18:16:18Z</time>
      </trkpt>
      <trkpt lat="56.899523579285" lon="14.831625199112">
        <ele>172.4</ele>
        <time>2020-02-10T18:16:21Z</time>
      </trkpt>
      <trkpt lat="56.89948460345" lon="14.831411125386">
        <ele>173.6</ele>
        <time>2020-02-10T18:16:26Z</time>
      </trkpt>
      <trkpt lat="56.899373375637" lon="14.831127146614">
        <ele>173.6</ele>
        <time>2020-02-10T18:16:32Z</time>
      </trkpt>
      <trkpt lat="56.899297770899" lon="14.83092715448">
        <ele>172.4</ele>
        <time>2020-02-10T18:16:36Z</time>
      </trkpt>
      <trkpt lat="56.89927254138" lon="14.830669662512">
        <ele>171.2</ele>
        <time>2020-02-10T18:16:40Z</time>
      </trkpt>
      <trkpt lat="56.899210012406" lon="14.830459109184">
        <ele>169.8</ele>
        <time>2020-02-10T18:16:44Z</time>
      </trkpt>
      <trkpt lat="56.899132647469" lon="14.830273282461">
        <ele>168.2</ele>
        <time>2020-02-10T18:16:48Z</time>
      </trkpt>
      <trkpt lat="56.898974816292" lon="14.830065411341">
        <ele>168.8</ele>
        <time>2020-02-10T18:16:56Z</time>
      </trkpt>
      <trkpt lat="56.898957801035" lon="14.830039846546">
        <ele>169.2</ele>
        <time>2020-02-10T18:16:57Z</time>
      </trkpt>
      <trkpt lat="56.89879561127" lon="14.829831053417">
        <ele>168.4</ele>
        <time>2020-02-10T18:17:04Z</time>
      </trkpt>
      <trkpt lat="56.898764682059" lon="14.829814624893">
        <ele>167.6</ele>
        <time>2020-02-10T18:17:05Z</time>
      </trkpt>
      <trkpt lat="56.898565360477" lon="14.829865670664">
        <ele>167</ele>
        <time>2020-02-10T18:17:11Z</time>
      </trkpt>
      <trkpt lat="56.898414737734" lon="14.830120648062">
        <ele>167</ele>
        <time>2020-02-10T18:17:18Z</time>
      </trkpt>
      <trkpt lat="56.898262690068" lon="14.830297254695">
        <ele>168.8</ele>
        <time>2020-02-10T18:17:25Z</time>
      </trkpt>
      <trkpt lat="56.898166382037" lon="14.830365818637">
        <ele>169.8</ele>
        <time>2020-02-10T18:17:29Z</time>
      </trkpt>
      <trkpt lat="56.897974771803" lon="14.830522057253">
        <ele>170</ele>
        <time>2020-02-10T18:17:36Z</time>
      </trkpt>
      <trkpt lat="56.897881062161" lon="14.83059271667">
        <ele>170.8</ele>
        <time>2020-02-10T18:17:40Z</time>
      </trkpt>
      <trkpt lat="56.897706383365" lon="14.830678882602">
        <ele>171.4</ele>
        <time>2020-02-10T18:17:46Z</time>
      </trkpt>
      <trkpt lat="56.897544361238" lon="14.830786841474">
        <ele>172</ele>
        <time>2020-02-10T18:17:52Z</time>
      </trkpt>
      <trkpt lat="56.897374292487" lon="14.830927741213">
        <ele>172.8</ele>
        <time>2020-02-10T18:17:58Z</time>
      </trkpt>
      <trkpt lat="56.897205229564" lon="14.831102671466">
        <ele>172</ele>
        <time>2020-02-10T18:18:04Z</time>
      </trkpt>
      <trkpt lat="56.897017558823" lon="14.831244409395">
        <ele>172.4</ele>
        <time>2020-02-10T18:18:10Z</time>
      </trkpt>
      <trkpt lat="56.896852435393" lon="14.831437863647">
        <ele>171.8</ele>
        <time>2020-02-10T18:18:17Z</time>
      </trkpt>
      <trkpt lat="56.896692760198" lon="14.831621762533">
        <ele>171.4</ele>
        <time>2020-02-10T18:18:24Z</time>
      </trkpt>
      <trkpt lat="56.896501652878" lon="14.831793591483">
        <ele>171</ele>
        <time>2020-02-10T18:18:30Z</time>
      </trkpt>
      <trkpt lat="56.896329153376" lon="14.831934910317">
        <ele>171.4</ele>
        <time>2020-02-10T18:18:36Z</time>
      </trkpt>
      <trkpt lat="56.896144751576" lon="14.832060471179">
        <ele>171.6</ele>
        <time>2020-02-10T18:18:42Z</time>
      </trkpt>
      <trkpt lat="56.895953392799" lon="14.832123838343">
        <ele>171.8</ele>
        <time>2020-02-10T18:18:48Z</time>
      </trkpt>
      <trkpt lat="56.895773265768" lon="14.832210507189">
        <ele>171.6</ele>
        <time>2020-02-10T18:18:54Z</time>
      </trkpt>
      <trkpt lat="56.895585762665" lon="14.832355933154">
        <ele>171.6</ele>
        <time>2020-02-10T18:19:01Z</time>
      </trkpt>
      <trkpt lat="56.895477803793" lon="14.832454252841">
        <ele>171.8</ele>
        <time>2020-02-10T18:19:05Z</time>
      </trkpt>
      <trkpt lat="56.895289630138" lon="14.83246942408">
        <ele>171.2</ele>
        <time>2020-02-10T18:19:13Z</time>
      </trkpt>
      <trkpt lat="56.89521737816" lon="14.832458359972">
        <ele>170.6</ele>
        <time>2020-02-10T18:19:15Z</time>
      </trkpt>
      <trkpt lat="56.895028701591" lon="14.832477135428">
        <ele>169.6</ele>
        <time>2020-02-10T18:19:20Z</time>
      </trkpt>
      <trkpt lat="56.894831559303" lon="14.832558523677">
        <ele>169.2</ele>
        <time>2020-02-10T18:19:25Z</time>
      </trkpt>
      <trkpt lat="56.894672806117" lon="14.832749714816">
        <ele>169</ele>
        <time>2020-02-10T18:19:31Z</time>
      </trkpt>
      <trkpt lat="56.894561243028" lon="14.8330125712">
        <ele>169.6</ele>
        <time>2020-02-10T18:19:37Z</time>
      </trkpt>
      <trkpt lat="56.894452362147" lon="14.833229997686">
        <ele>170.6</ele>
        <time>2020-02-10T18:19:42Z</time>
      </trkpt>
      <trkpt lat="56.894315234263" lon="14.833449938742">
        <ele>170.8</ele>
        <time>2020-02-10T18:19:48Z</time>
      </trkpt>
      <trkpt lat="56.894145668426" lon="14.833624282262">
        <ele>171</ele>
        <time>2020-02-10T18:19:55Z</time>
      </trkpt>
      <trkpt lat="56.893948861414" lon="14.833734085152">
        <ele>170.8</ele>
        <time>2020-02-10T18:20:02Z</time>
      </trkpt>
      <trkpt lat="56.893760017207" lon="14.833683290838">
        <ele>171.4</ele>
        <time>2020-02-10T18:20:08Z</time>
      </trkpt>
      <trkpt lat="56.893582237108" lon="14.83360600972">
        <ele>171.6</ele>
        <time>2020-02-10T18:20:14Z</time>
      </trkpt>
      <trkpt lat="56.893567233507" lon="14.833592514861">
        <ele>171.6</ele>
        <time>2020-02-10T18:20:15Z</time>
      </trkpt>
      <trkpt lat="56.893474445874" lon="14.833525962575">
        <ele>172.8</ele>
        <time>2020-02-10T18:20:19Z</time>
      </trkpt>
      <trkpt lat="56.893347711546" lon="14.833438623177">
        <ele>174</ele>
        <time>2020-02-10T18:20:24Z</time>
      </trkpt>
      <trkpt lat="56.893166997782" lon="14.833311721211">
        <ele>174.8</ele>
        <time>2020-02-10T18:20:30Z</time>
      </trkpt>
      <trkpt lat="56.893075048339" lon="14.833258077051">
        <ele>175.2</ele>
        <time>2020-02-10T18:20:34Z</time>
      </trkpt>
      <trkpt lat="56.892875223843" lon="14.83331515779">
        <ele>175.2</ele>
        <time>2020-02-10T18:20:40Z</time>
      </trkpt>
      <trkpt lat="56.892685289989" lon="14.833370562149">
        <ele>175.6</ele>
        <time>2020-02-10T18:20:48Z</time>
      </trkpt>
      <trkpt lat="56.892553191245" lon="14.833368466674">
        <ele>176.2</ele>
        <time>2020-02-10T18:20:53Z</time>
      </trkpt>
      <trkpt lat="56.892403658149" lon="14.833416494961">
        <ele>177.4</ele>
        <time>2020-02-10T18:20:59Z</time>
      </trkpt>
      <trkpt lat="56.892258735098" lon="14.833503499083">
        <ele>178.6</ele>
        <time>2020-02-10T18:21:04Z</time>
      </trkpt>
      <trkpt lat="56.892175167555" lon="14.833501068332">
        <ele>179.6</ele>
        <time>2020-02-10T18:21:07Z</time>
      </trkpt>
      <trkpt lat="56.892071483452" lon="14.833504085816">
        <ele>180.6</ele>
        <time>2020-02-10T18:21:10Z</time>
      </trkpt>
      <trkpt lat="56.89188724929" lon="14.833560076908">
        <ele>179.6</ele>
        <time>2020-02-10T18:21:16Z</time>
      </trkpt>
      <trkpt lat="56.891837376985" lon="14.83358673135">
        <ele>179.6</ele>
        <time>2020-02-10T18:21:18Z</time>
      </trkpt>
      <trkpt lat="56.891644509466" lon="14.833665940305">
        <ele>180.2</ele>
        <time>2020-02-10T18:21:25Z</time>
      </trkpt>
      <trkpt lat="56.891534119843" lon="14.83372084175">
        <ele>180.6</ele>
        <time>2020-02-10T18:21:29Z</time>
      </trkpt>
      <trkpt lat="56.891419958365" lon="14.833791165891">
        <ele>181.8</ele>
        <time>2020-02-10T18:21:34Z</time>
      </trkpt>
      <trkpt lat="56.891207896295" lon="14.833860568023">
        <ele>182.8</ele>
        <time>2020-02-10T18:21:43Z</time>
      </trkpt>
      <trkpt lat="56.891065739271" lon="14.833790579158">
        <ele>181.6</ele>
        <time>2020-02-10T18:21:47Z</time>
      </trkpt>
      <trkpt lat="56.890979573339" lon="14.833707263072">
        <ele>180.4</ele>
        <time>2020-02-10T18:21:50Z</time>
      </trkpt>
      <trkpt lat="56.890808917855" lon="14.833559825451">
        <ele>179.8</ele>
        <time>2020-02-10T18:21:56Z</time>
      </trkpt>
      <trkpt lat="56.890738258438" lon="14.833511964802">
        <ele>179.4</ele>
        <time>2020-02-10T18:21:58Z</time>
      </trkpt>
      <trkpt lat="56.890602723115" lon="14.833392522727">
        <ele>178.4</ele>
        <time>2020-02-10T18:22:02Z</time>
      </trkpt>
      <trkpt lat="56.890453525295" lon="14.833232763713">
        <ele>177</ele>
        <time>2020-02-10T18:22:07Z</time>
      </trkpt>
      <trkpt lat="56.89039694747" lon="14.833148609437">
        <ele>175.2</ele>
        <time>2020-02-10T18:22:09Z</time>
      </trkpt>
      <trkpt lat="56.890240708854" lon="14.832936715005">
        <ele>174.2</ele>
        <time>2020-02-10T18:22:14Z</time>
      </trkpt>
      <trkpt lat="56.890200978648" lon="14.832893632039">
        <ele>174.2</ele>
        <time>2020-02-10T18:22:15Z</time>
      </trkpt>
      <trkpt lat="56.890083883505" lon="14.832678803942">
        <ele>173</ele>
        <time>2020-02-10T18:22:20Z</time>
      </trkpt>
      <trkpt lat="56.889922029016" lon="14.832437489041">
        <ele>172.6</ele>
        <time>2020-02-10T18:22:27Z</time>
      </trkpt>
      <trkpt lat="56.889781799829" lon="14.832172034268">
        <ele>173.4</ele>
        <time>2020-02-10T18:22:34Z</time>
      </trkpt>
      <trkpt lat="56.889644336669" lon="14.831945387692">
        <ele>173</ele>
        <time>2020-02-10T18:22:40Z</time>
      </trkpt>
      <trkpt lat="56.889560517669" lon="14.831779426072">
        <ele>174.2</ele>
        <time>2020-02-10T18:22:45Z</time>
      </trkpt>
      <trkpt lat="56.889490696442" lon="14.831681776937">
        <ele>173</ele>
        <time>2020-02-10T18:22:48Z</time>
      </trkpt>
      <trkpt lat="56.889413918238" lon="14.831607680941">
        <ele>171.8</ele>
        <time>2020-02-10T18:22:51Z</time>
      </trkpt>
      <trkpt lat="56.889314508904" lon="14.83151304929">
        <ele>170.6</ele>
        <time>2020-02-10T18:22:55Z</time>
      </trkpt>
      <trkpt lat="56.889270336291" lon="14.831469547229">
        <ele>169.4</ele>
        <time>2020-02-10T18:22:57Z</time>
      </trkpt>
      <trkpt lat="56.889151732406" lon="14.831380363813">
        <ele>168.4</ele>
        <time>2020-02-10T18:23:01Z</time>
      </trkpt>
      <trkpt lat="56.888976383058" lon="14.831238206789">
        <ele>166.8</ele>
        <time>2020-02-10T18:23:06Z</time>
      </trkpt>
      <trkpt lat="56.888880913217" lon="14.831121195465">
        <ele>165.6</ele>
        <time>2020-02-10T18:23:09Z</time>
      </trkpt>
      <trkpt lat="56.888820563537" lon="14.831041902691">
        <ele>163.8</ele>
        <time>2020-02-10T18:23:11Z</time>
      </trkpt>
      <trkpt lat="56.888724339325" lon="14.830914916906">
        <ele>162.6</ele>
        <time>2020-02-10T18:23:14Z</time>
      </trkpt>
      <trkpt lat="56.888570866736" lon="14.830724899233">
        <ele>161.8</ele>
        <time>2020-02-10T18:23:20Z</time>
      </trkpt>
      <trkpt lat="56.888507415753" lon="14.830702184284">
        <ele>161.2</ele>
        <time>2020-02-10T18:23:22Z</time>
      </trkpt>
      <trkpt lat="56.888346818549" lon="14.83068743214">
        <ele>160.2</ele>
        <time>2020-02-10T18:23:27Z</time>
      </trkpt>
      <trkpt lat="56.88830314885" lon="14.830665303924">
        <ele>160</ele>
        <time>2020-02-10T18:23:28Z</time>
      </trkpt>
      <trkpt lat="56.888268950698" lon="14.830571175187">
        <ele>160</ele>
        <time>2020-02-10T18:23:30Z</time>
      </trkpt>
    </trkseg>
  </trk>
</gpx>